<?xml version="1.0" encoding="UTF-8" standalone="no" ?>
<gpx xmlns="http://www.topografix.com/GPX/1/1" xmlns:xsi="http://www.w3.org/2001/XMLSchema-instance" xsi:schemaLocation="http://www.topografix.com/GPX/1/1 http://www.topografix.com/GPX/1/1/gpx.xsd" version="1.1" creator="VisuGPX - https://www.visugpx.com">
  <metadata>
    <name>Saint-Didier-en-Velay  Aurec</name>
  </metadata>
  <trk>
    <name><![CDATA[Saint-Didier-en-Velay  Aurec]]></name>
    <trkseg>
      <trkpt lat="45.30218" lon="4.27651">
        <ele>834.59997558594</ele>
        <time>2019-09-19T11:22:19.000Z</time>
      </trkpt>
      <trkpt lat="45.30214" lon="4.27645">
        <ele>834.40002441406</ele>
        <time>2019-09-19T11:22:25.000Z</time>
      </trkpt>
      <trkpt lat="45.30218" lon="4.27641">
        <ele>834.40002441406</ele>
        <time>2019-09-19T11:22:28.000Z</time>
      </trkpt>
      <trkpt lat="45.30238" lon="4.27632">
        <ele>835</ele>
        <time>2019-09-19T11:22:37.000Z</time>
      </trkpt>
      <trkpt lat="45.30291" lon="4.27637">
        <ele>837.40002441406</ele>
        <time>2019-09-19T11:23:14.000Z</time>
      </trkpt>
      <trkpt lat="45.30346" lon="4.27632">
        <ele>840.59997558594</ele>
        <time>2019-09-19T11:23:39.000Z</time>
      </trkpt>
      <trkpt lat="45.30358" lon="4.27633">
        <ele>841.20001220703</ele>
        <time>2019-09-19T11:23:45.000Z</time>
      </trkpt>
      <trkpt lat="45.30353" lon="4.27635">
        <ele>840.79998779297</ele>
        <time>2019-09-19T11:23:49.000Z</time>
      </trkpt>
      <trkpt lat="45.30345" lon="4.27643">
        <ele>840.20001220703</ele>
        <time>2019-09-19T11:23:56.000Z</time>
      </trkpt>
      <trkpt lat="45.30346" lon="4.27652">
        <ele>840</ele>
        <time>2019-09-19T11:23:58.000Z</time>
      </trkpt>
      <trkpt lat="45.30389" lon="4.27699">
        <ele>841.59997558594</ele>
        <time>2019-09-19T11:24:12.000Z</time>
      </trkpt>
      <trkpt lat="45.3044" lon="4.27727">
        <ele>844.59997558594</ele>
        <time>2019-09-19T11:24:25.000Z</time>
      </trkpt>
      <trkpt lat="45.30492" lon="4.27758">
        <ele>846.59997558594</ele>
        <time>2019-09-19T11:24:38.000Z</time>
      </trkpt>
      <trkpt lat="45.30545" lon="4.2779">
        <ele>847.20001220703</ele>
        <time>2019-09-19T11:24:52.000Z</time>
      </trkpt>
      <trkpt lat="45.30595" lon="4.27822">
        <ele>847.59997558594</ele>
        <time>2019-09-19T11:25:05.000Z</time>
      </trkpt>
      <trkpt lat="45.30645" lon="4.27856">
        <ele>848.59997558594</ele>
        <time>2019-09-19T11:25:18.000Z</time>
      </trkpt>
      <trkpt lat="45.30675" lon="4.27876">
        <ele>850.20001220703</ele>
        <time>2019-09-19T11:25:26.000Z</time>
      </trkpt>
      <trkpt lat="45.30707" lon="4.279">
        <ele>852.20001220703</ele>
        <time>2019-09-19T11:25:35.000Z</time>
      </trkpt>
      <trkpt lat="45.30757" lon="4.27931">
        <ele>857.79998779297</ele>
        <time>2019-09-19T11:25:55.000Z</time>
      </trkpt>
      <trkpt lat="45.30811" lon="4.27945">
        <ele>863</ele>
        <time>2019-09-19T11:26:19.000Z</time>
      </trkpt>
      <trkpt lat="45.30866" lon="4.27936">
        <ele>862.59997558594</ele>
        <time>2019-09-19T11:26:41.000Z</time>
      </trkpt>
      <trkpt lat="45.3091" lon="4.27916">
        <ele>857.20001220703</ele>
        <time>2019-09-19T11:26:50.000Z</time>
      </trkpt>
      <trkpt lat="45.30932" lon="4.27913">
        <ele>854.79998779297</ele>
        <time>2019-09-19T11:26:54.000Z</time>
      </trkpt>
      <trkpt lat="45.30991" lon="4.27921">
        <ele>848.59997558594</ele>
        <time>2019-09-19T11:27:02.000Z</time>
      </trkpt>
      <trkpt lat="45.31049" lon="4.27934">
        <ele>842.20001220703</ele>
        <time>2019-09-19T11:27:08.000Z</time>
      </trkpt>
      <trkpt lat="45.31068" lon="4.27938">
        <ele>842.20001220703</ele>
        <time>2019-09-19T11:27:10.000Z</time>
      </trkpt>
      <trkpt lat="45.31128" lon="4.27934">
        <ele>839.20001220703</ele>
        <time>2019-09-19T11:27:17.000Z</time>
      </trkpt>
      <trkpt lat="45.31183" lon="4.27919">
        <ele>835.40002441406</ele>
        <time>2019-09-19T11:27:24.000Z</time>
      </trkpt>
      <trkpt lat="45.31239" lon="4.27893">
        <ele>830.79998779297</ele>
        <time>2019-09-19T11:27:33.000Z</time>
      </trkpt>
      <trkpt lat="45.31291" lon="4.27868">
        <ele>824.79998779297</ele>
        <time>2019-09-19T11:27:45.000Z</time>
      </trkpt>
      <trkpt lat="45.31317" lon="4.27871">
        <ele>825.59997558594</ele>
        <time>2019-09-19T11:27:52.000Z</time>
      </trkpt>
      <trkpt lat="45.31334" lon="4.27891">
        <ele>827.59997558594</ele>
        <time>2019-09-19T11:27:56.000Z</time>
      </trkpt>
      <trkpt lat="45.31384" lon="4.2787">
        <ele>829.59997558594</ele>
        <time>2019-09-19T11:28:06.000Z</time>
      </trkpt>
      <trkpt lat="45.31392" lon="4.2786">
        <ele>829</ele>
        <time>2019-09-19T11:28:08.000Z</time>
      </trkpt>
      <trkpt lat="45.3144" lon="4.27814">
        <ele>826</ele>
        <time>2019-09-19T11:28:23.000Z</time>
      </trkpt>
      <trkpt lat="45.31449" lon="4.27809">
        <ele>826.59997558594</ele>
        <time>2019-09-19T11:28:25.000Z</time>
      </trkpt>
      <trkpt lat="45.31475" lon="4.27809">
        <ele>827.79998779297</ele>
        <time>2019-09-19T11:28:30.000Z</time>
      </trkpt>
      <trkpt lat="45.31532" lon="4.27823">
        <ele>828.59997558594</ele>
        <time>2019-09-19T11:28:43.000Z</time>
      </trkpt>
      <trkpt lat="45.31589" lon="4.27809">
        <ele>828.79998779297</ele>
        <time>2019-09-19T11:28:56.000Z</time>
      </trkpt>
      <trkpt lat="45.31644" lon="4.27794">
        <ele>829</ele>
        <time>2019-09-19T11:29:07.000Z</time>
      </trkpt>
      <trkpt lat="45.31654" lon="4.27791">
        <ele>829</ele>
        <time>2019-09-19T11:29:09.000Z</time>
      </trkpt>
      <trkpt lat="45.31672" lon="4.27786">
        <ele>829.20001220703</ele>
        <time>2019-09-19T11:29:13.000Z</time>
      </trkpt>
      <trkpt lat="45.31697" lon="4.27782">
        <ele>829.79998779297</ele>
        <time>2019-09-19T11:29:19.000Z</time>
      </trkpt>
      <trkpt lat="45.3171" lon="4.27784">
        <ele>830</ele>
        <time>2019-09-19T11:29:22.000Z</time>
      </trkpt>
      <trkpt lat="45.31764" lon="4.27795">
        <ele>830.20001220703</ele>
        <time>2019-09-19T11:29:35.000Z</time>
      </trkpt>
      <trkpt lat="45.31792" lon="4.27803">
        <ele>830.20001220703</ele>
        <time>2019-09-19T11:29:41.000Z</time>
      </trkpt>
      <trkpt lat="45.31847" lon="4.27821">
        <ele>828</ele>
        <time>2019-09-19T11:29:52.000Z</time>
      </trkpt>
      <trkpt lat="45.31901" lon="4.27847">
        <ele>824</ele>
        <time>2019-09-19T11:30:03.000Z</time>
      </trkpt>
      <trkpt lat="45.31928" lon="4.27854">
        <ele>820.59997558594</ele>
        <time>2019-09-19T11:30:08.000Z</time>
      </trkpt>
      <trkpt lat="45.31959" lon="4.27853">
        <ele>816.79998779297</ele>
        <time>2019-09-19T11:30:15.000Z</time>
      </trkpt>
      <trkpt lat="45.31997" lon="4.2786">
        <ele>813.59997558594</ele>
        <time>2019-09-19T11:30:22.000Z</time>
      </trkpt>
      <trkpt lat="45.32053" lon="4.27872">
        <ele>810</ele>
        <time>2019-09-19T11:30:32.000Z</time>
      </trkpt>
      <trkpt lat="45.32107" lon="4.27884">
        <ele>811.79998779297</ele>
        <time>2019-09-19T11:30:42.000Z</time>
      </trkpt>
      <trkpt lat="45.3213" lon="4.27892">
        <ele>812.59997558594</ele>
        <time>2019-09-19T11:30:46.000Z</time>
      </trkpt>
      <trkpt lat="45.32168" lon="4.27913">
        <ele>807.59997558594</ele>
        <time>2019-09-19T11:30:54.000Z</time>
      </trkpt>
      <trkpt lat="45.32187" lon="4.27932">
        <ele>804.59997558594</ele>
        <time>2019-09-19T11:31:00.000Z</time>
      </trkpt>
      <trkpt lat="45.32237" lon="4.27972">
        <ele>796</ele>
        <time>2019-09-19T11:31:13.000Z</time>
      </trkpt>
      <trkpt lat="45.32241" lon="4.27976">
        <ele>795.20001220703</ele>
        <time>2019-09-19T11:31:14.000Z</time>
      </trkpt>
      <trkpt lat="45.32261" lon="4.27992">
        <ele>791.59997558594</ele>
        <time>2019-09-19T11:31:19.000Z</time>
      </trkpt>
      <trkpt lat="45.32268" lon="4.27999">
        <ele>790</ele>
        <time>2019-09-19T11:31:21.000Z</time>
      </trkpt>
      <trkpt lat="45.32315" lon="4.28041">
        <ele>780</ele>
        <time>2019-09-19T11:31:36.000Z</time>
      </trkpt>
      <trkpt lat="45.32349" lon="4.28069">
        <ele>771.59997558594</ele>
        <time>2019-09-19T11:31:47.000Z</time>
      </trkpt>
      <trkpt lat="45.3236" lon="4.28076">
        <ele>769</ele>
        <time>2019-09-19T11:31:50.000Z</time>
      </trkpt>
      <trkpt lat="45.32382" lon="4.28108">
        <ele>762.40002441406</ele>
        <time>2019-09-19T11:31:57.000Z</time>
      </trkpt>
      <trkpt lat="45.32389" lon="4.28118">
        <ele>761.20001220703</ele>
        <time>2019-09-19T11:31:59.000Z</time>
      </trkpt>
      <trkpt lat="45.32411" lon="4.28117">
        <ele>758.79998779297</ele>
        <time>2019-09-19T11:32:04.000Z</time>
      </trkpt>
      <trkpt lat="45.32415" lon="4.28117">
        <ele>758.40002441406</ele>
        <time>2019-09-19T11:32:05.000Z</time>
      </trkpt>
      <trkpt lat="45.32446" lon="4.28134">
        <ele>755.40002441406</ele>
        <time>2019-09-19T11:32:10.000Z</time>
      </trkpt>
      <trkpt lat="45.32482" lon="4.28165">
        <ele>754.20001220703</ele>
        <time>2019-09-19T11:32:15.000Z</time>
      </trkpt>
      <trkpt lat="45.32527" lon="4.28181">
        <ele>754.59997558594</ele>
        <time>2019-09-19T11:32:22.000Z</time>
      </trkpt>
      <trkpt lat="45.32577" lon="4.28144">
        <ele>754.59997558594</ele>
        <time>2019-09-19T11:32:35.000Z</time>
      </trkpt>
      <trkpt lat="45.32596" lon="4.28126">
        <ele>755</ele>
        <time>2019-09-19T11:32:42.000Z</time>
      </trkpt>
      <trkpt lat="45.32605" lon="4.28167">
        <ele>753.40002441406</ele>
        <time>2019-09-19T11:32:49.000Z</time>
      </trkpt>
      <trkpt lat="45.32611" lon="4.28197">
        <ele>752.59997558594</ele>
        <time>2019-09-19T11:32:53.000Z</time>
      </trkpt>
      <trkpt lat="45.32638" lon="4.2821">
        <ele>751.40002441406</ele>
        <time>2019-09-19T11:32:58.000Z</time>
      </trkpt>
      <trkpt lat="45.32645" lon="4.2821">
        <ele>751.20001220703</ele>
        <time>2019-09-19T11:32:59.000Z</time>
      </trkpt>
      <trkpt lat="45.32669" lon="4.28208">
        <ele>749</ele>
        <time>2019-09-19T11:33:02.000Z</time>
      </trkpt>
      <trkpt lat="45.32729" lon="4.28188">
        <ele>746.20001220703</ele>
        <time>2019-09-19T11:33:09.000Z</time>
      </trkpt>
      <trkpt lat="45.32743" lon="4.28185">
        <ele>747.40002441406</ele>
        <time>2019-09-19T11:33:11.000Z</time>
      </trkpt>
      <trkpt lat="45.32763" lon="4.28188">
        <ele>749.20001220703</ele>
        <time>2019-09-19T11:33:14.000Z</time>
      </trkpt>
      <trkpt lat="45.3279" lon="4.28186">
        <ele>751.40002441406</ele>
        <time>2019-09-19T11:33:19.000Z</time>
      </trkpt>
      <trkpt lat="45.32825" lon="4.28163">
        <ele>757</ele>
        <time>2019-09-19T11:33:32.000Z</time>
      </trkpt>
      <trkpt lat="45.32832" lon="4.28151">
        <ele>758</ele>
        <time>2019-09-19T11:33:37.000Z</time>
      </trkpt>
      <trkpt lat="45.32861" lon="4.28084">
        <ele>763.79998779297</ele>
        <time>2019-09-19T11:34:06.000Z</time>
      </trkpt>
      <trkpt lat="45.3287" lon="4.28008">
        <ele>768.59997558594</ele>
        <time>2019-09-19T11:34:35.000Z</time>
      </trkpt>
      <trkpt lat="45.32892" lon="4.27947">
        <ele>777.20001220703</ele>
        <time>2019-09-19T11:35:00.000Z</time>
      </trkpt>
      <trkpt lat="45.3292" lon="4.27882">
        <ele>777.59997558594</ele>
        <time>2019-09-19T11:35:28.000Z</time>
      </trkpt>
      <trkpt lat="45.32964" lon="4.27834">
        <ele>780.79998779297</ele>
        <time>2019-09-19T11:35:59.000Z</time>
      </trkpt>
      <trkpt lat="45.33007" lon="4.27785">
        <ele>785</ele>
        <time>2019-09-19T11:36:27.000Z</time>
      </trkpt>
      <trkpt lat="45.33051" lon="4.27741">
        <ele>790.59997558594</ele>
        <time>2019-09-19T11:36:52.000Z</time>
      </trkpt>
      <trkpt lat="45.3309" lon="4.27688">
        <ele>795</ele>
        <time>2019-09-19T11:37:21.000Z</time>
      </trkpt>
      <trkpt lat="45.33126" lon="4.2763">
        <ele>798</ele>
        <time>2019-09-19T11:37:54.000Z</time>
      </trkpt>
      <trkpt lat="45.33132" lon="4.27625">
        <ele>798.59997558594</ele>
        <time>2019-09-19T11:38:02.000Z</time>
      </trkpt>
      <trkpt lat="45.33131" lon="4.27625">
        <ele>798.59997558594</ele>
        <time>2019-09-19T11:43:25.000Z</time>
      </trkpt>
      <trkpt lat="45.33131" lon="4.27625">
        <ele>798.59997558594</ele>
        <time>2019-09-19T11:43:30.000Z</time>
      </trkpt>
      <trkpt lat="45.33137" lon="4.27621">
        <ele>798.79998779297</ele>
        <time>2019-09-19T11:43:40.000Z</time>
      </trkpt>
      <trkpt lat="45.33166" lon="4.27597">
        <ele>800.79998779297</ele>
        <time>2019-09-19T11:44:03.000Z</time>
      </trkpt>
      <trkpt lat="45.33185" lon="4.27584">
        <ele>802.20001220703</ele>
        <time>2019-09-19T11:44:15.000Z</time>
      </trkpt>
      <trkpt lat="45.33203" lon="4.27571">
        <ele>803.79998779297</ele>
        <time>2019-09-19T11:44:24.000Z</time>
      </trkpt>
      <trkpt lat="45.33256" lon="4.27548">
        <ele>807.20001220703</ele>
        <time>2019-09-19T11:44:40.000Z</time>
      </trkpt>
      <trkpt lat="45.33306" lon="4.27515">
        <ele>808.40002441406</ele>
        <time>2019-09-19T11:44:52.000Z</time>
      </trkpt>
      <trkpt lat="45.33327" lon="4.275">
        <ele>806.40002441406</ele>
        <time>2019-09-19T11:44:57.000Z</time>
      </trkpt>
      <trkpt lat="45.33346" lon="4.2749">
        <ele>805</ele>
        <time>2019-09-19T11:45:01.000Z</time>
      </trkpt>
      <trkpt lat="45.33403" lon="4.27471">
        <ele>802.40002441406</ele>
        <time>2019-09-19T11:45:12.000Z</time>
      </trkpt>
      <trkpt lat="45.33459" lon="4.27453">
        <ele>803.20001220703</ele>
        <time>2019-09-19T11:45:22.000Z</time>
      </trkpt>
      <trkpt lat="45.33511" lon="4.27444">
        <ele>804</ele>
        <time>2019-09-19T11:45:32.000Z</time>
      </trkpt>
      <trkpt lat="45.33537" lon="4.27435">
        <ele>804.59997558594</ele>
        <time>2019-09-19T11:45:39.000Z</time>
      </trkpt>
      <trkpt lat="45.33538" lon="4.274">
        <ele>805.20001220703</ele>
        <time>2019-09-19T11:45:45.000Z</time>
      </trkpt>
      <trkpt lat="45.3353" lon="4.27324">
        <ele>805.59997558594</ele>
        <time>2019-09-19T11:45:54.000Z</time>
      </trkpt>
      <trkpt lat="45.3352" lon="4.27239">
        <ele>804.79998779297</ele>
        <time>2019-09-19T11:46:03.000Z</time>
      </trkpt>
      <trkpt lat="45.33518" lon="4.27219">
        <ele>803.59997558594</ele>
        <time>2019-09-19T11:46:05.000Z</time>
      </trkpt>
      <trkpt lat="45.33504" lon="4.27141">
        <ele>800.79998779297</ele>
        <time>2019-09-19T11:46:13.000Z</time>
      </trkpt>
      <trkpt lat="45.33487" lon="4.27067">
        <ele>800.40002441406</ele>
        <time>2019-09-19T11:46:21.000Z</time>
      </trkpt>
      <trkpt lat="45.33464" lon="4.26991">
        <ele>802.40002441406</ele>
        <time>2019-09-19T11:46:31.000Z</time>
      </trkpt>
      <trkpt lat="45.33451" lon="4.26924">
        <ele>801.20001220703</ele>
        <time>2019-09-19T11:46:41.000Z</time>
      </trkpt>
      <trkpt lat="45.33446" lon="4.26902">
        <ele>799.20001220703</ele>
        <time>2019-09-19T11:46:44.000Z</time>
      </trkpt>
      <trkpt lat="45.33446" lon="4.26867">
        <ele>796.59997558594</ele>
        <time>2019-09-19T11:46:48.000Z</time>
      </trkpt>
      <trkpt lat="45.33449" lon="4.26848">
        <ele>796</ele>
        <time>2019-09-19T11:46:50.000Z</time>
      </trkpt>
      <trkpt lat="45.33456" lon="4.26821">
        <ele>795</ele>
        <time>2019-09-19T11:46:53.000Z</time>
      </trkpt>
      <trkpt lat="45.33465" lon="4.2678">
        <ele>793</ele>
        <time>2019-09-19T11:46:57.000Z</time>
      </trkpt>
      <trkpt lat="45.33473" lon="4.26704">
        <ele>795</ele>
        <time>2019-09-19T11:47:05.000Z</time>
      </trkpt>
      <trkpt lat="45.33483" lon="4.26636">
        <ele>794.20001220703</ele>
        <time>2019-09-19T11:47:14.000Z</time>
      </trkpt>
      <trkpt lat="45.33486" lon="4.26601">
        <ele>793.79998779297</ele>
        <time>2019-09-19T11:47:19.000Z</time>
      </trkpt>
      <trkpt lat="45.33498" lon="4.26566">
        <ele>794.20001220703</ele>
        <time>2019-09-19T11:47:25.000Z</time>
      </trkpt>
      <trkpt lat="45.33499" lon="4.2656">
        <ele>794.20001220703</ele>
        <time>2019-09-19T11:47:26.000Z</time>
      </trkpt>
      <trkpt lat="45.33521" lon="4.265">
        <ele>794</ele>
        <time>2019-09-19T11:47:36.000Z</time>
      </trkpt>
      <trkpt lat="45.33529" lon="4.26419">
        <ele>799</ele>
        <time>2019-09-19T11:47:48.000Z</time>
      </trkpt>
      <trkpt lat="45.33529" lon="4.26413">
        <ele>799</ele>
        <time>2019-09-19T11:47:49.000Z</time>
      </trkpt>
      <trkpt lat="45.3353" lon="4.26399">
        <ele>799.40002441406</ele>
        <time>2019-09-19T11:47:51.000Z</time>
      </trkpt>
      <trkpt lat="45.33527" lon="4.26321">
        <ele>799.79998779297</ele>
        <time>2019-09-19T11:48:04.000Z</time>
      </trkpt>
      <trkpt lat="45.3353" lon="4.26241">
        <ele>799.79998779297</ele>
        <time>2019-09-19T11:48:22.000Z</time>
      </trkpt>
      <trkpt lat="45.33539" lon="4.26161">
        <ele>804</ele>
        <time>2019-09-19T11:48:39.000Z</time>
      </trkpt>
      <trkpt lat="45.33555" lon="4.26088">
        <ele>802.20001220703</ele>
        <time>2019-09-19T11:48:54.000Z</time>
      </trkpt>
      <trkpt lat="45.33565" lon="4.26057">
        <ele>798.79998779297</ele>
        <time>2019-09-19T11:49:01.000Z</time>
      </trkpt>
      <trkpt lat="45.33588" lon="4.26049">
        <ele>795.40002441406</ele>
        <time>2019-09-19T11:49:06.000Z</time>
      </trkpt>
      <trkpt lat="45.33599" lon="4.2604">
        <ele>793.20001220703</ele>
        <time>2019-09-19T11:49:08.000Z</time>
      </trkpt>
      <trkpt lat="45.33646" lon="4.25988">
        <ele>784.40002441406</ele>
        <time>2019-09-19T11:49:15.000Z</time>
      </trkpt>
      <trkpt lat="45.33673" lon="4.25957">
        <ele>781</ele>
        <time>2019-09-19T11:49:19.000Z</time>
      </trkpt>
      <trkpt lat="45.33682" lon="4.25945">
        <ele>779.40002441406</ele>
        <time>2019-09-19T11:49:21.000Z</time>
      </trkpt>
      <trkpt lat="45.33716" lon="4.2591">
        <ele>775.40002441406</ele>
        <time>2019-09-19T11:49:29.000Z</time>
      </trkpt>
      <trkpt lat="45.33733" lon="4.25893">
        <ele>773.79998779297</ele>
        <time>2019-09-19T11:49:33.000Z</time>
      </trkpt>
      <trkpt lat="45.33769" lon="4.25835">
        <ele>770</ele>
        <time>2019-09-19T11:49:42.000Z</time>
      </trkpt>
      <trkpt lat="45.33813" lon="4.25785">
        <ele>767.79998779297</ele>
        <time>2019-09-19T11:49:55.000Z</time>
      </trkpt>
      <trkpt lat="45.33855" lon="4.25732">
        <ele>766</ele>
        <time>2019-09-19T11:50:06.000Z</time>
      </trkpt>
      <trkpt lat="45.33896" lon="4.25675">
        <ele>764.20001220703</ele>
        <time>2019-09-19T11:50:17.000Z</time>
      </trkpt>
      <trkpt lat="45.33908" lon="4.25623">
        <ele>763.79998779297</ele>
        <time>2019-09-19T11:50:24.000Z</time>
      </trkpt>
      <trkpt lat="45.33921" lon="4.25599">
        <ele>762.79998779297</ele>
        <time>2019-09-19T11:50:28.000Z</time>
      </trkpt>
      <trkpt lat="45.33929" lon="4.25589">
        <ele>761.79998779297</ele>
        <time>2019-09-19T11:50:30.000Z</time>
      </trkpt>
      <trkpt lat="45.33942" lon="4.25576">
        <ele>761.20001220703</ele>
        <time>2019-09-19T11:50:33.000Z</time>
      </trkpt>
      <trkpt lat="45.33958" lon="4.25561">
        <ele>760.79998779297</ele>
        <time>2019-09-19T11:50:37.000Z</time>
      </trkpt>
      <trkpt lat="45.33972" lon="4.2555">
        <ele>759.40002441406</ele>
        <time>2019-09-19T11:50:40.000Z</time>
      </trkpt>
      <trkpt lat="45.3399" lon="4.25533">
        <ele>757.40002441406</ele>
        <time>2019-09-19T11:50:44.000Z</time>
      </trkpt>
      <trkpt lat="45.34038" lon="4.25489">
        <ele>752.79998779297</ele>
        <time>2019-09-19T11:50:55.000Z</time>
      </trkpt>
      <trkpt lat="45.34082" lon="4.25436">
        <ele>748</ele>
        <time>2019-09-19T11:51:07.000Z</time>
      </trkpt>
      <trkpt lat="45.34102" lon="4.25417">
        <ele>744.40002441406</ele>
        <time>2019-09-19T11:51:12.000Z</time>
      </trkpt>
      <trkpt lat="45.34144" lon="4.25378">
        <ele>741</ele>
        <time>2019-09-19T11:51:25.000Z</time>
      </trkpt>
      <trkpt lat="45.3416" lon="4.2536">
        <ele>740.40002441406</ele>
        <time>2019-09-19T11:51:29.000Z</time>
      </trkpt>
      <trkpt lat="45.34165" lon="4.25355">
        <ele>739.59997558594</ele>
        <time>2019-09-19T11:51:30.000Z</time>
      </trkpt>
      <trkpt lat="45.34194" lon="4.25321">
        <ele>735.79998779297</ele>
        <time>2019-09-19T11:51:36.000Z</time>
      </trkpt>
      <trkpt lat="45.34203" lon="4.25345">
        <ele>736</ele>
        <time>2019-09-19T11:51:45.000Z</time>
      </trkpt>
      <trkpt lat="45.34198" lon="4.25359">
        <ele>737</ele>
        <time>2019-09-19T11:51:48.000Z</time>
      </trkpt>
      <trkpt lat="45.34188" lon="4.25399">
        <ele>735.59997558594</ele>
        <time>2019-09-19T11:51:55.000Z</time>
      </trkpt>
      <trkpt lat="45.34161" lon="4.2547">
        <ele>737.79998779297</ele>
        <time>2019-09-19T11:52:11.000Z</time>
      </trkpt>
      <trkpt lat="45.34146" lon="4.25517">
        <ele>737.59997558594</ele>
        <time>2019-09-19T11:52:20.000Z</time>
      </trkpt>
      <trkpt lat="45.34132" lon="4.25596">
        <ele>735.79998779297</ele>
        <time>2019-09-19T11:52:33.000Z</time>
      </trkpt>
      <trkpt lat="45.34131" lon="4.25609">
        <ele>735.20001220703</ele>
        <time>2019-09-19T11:52:35.000Z</time>
      </trkpt>
      <trkpt lat="45.34131" lon="4.25628">
        <ele>735.40002441406</ele>
        <time>2019-09-19T11:52:38.000Z</time>
      </trkpt>
      <trkpt lat="45.34129" lon="4.25705">
        <ele>737.79998779297</ele>
        <time>2019-09-19T11:52:55.000Z</time>
      </trkpt>
      <trkpt lat="45.34119" lon="4.25782">
        <ele>744.20001220703</ele>
        <time>2019-09-19T11:53:13.000Z</time>
      </trkpt>
      <trkpt lat="45.34123" lon="4.25863">
        <ele>752.59997558594</ele>
        <time>2019-09-19T11:53:33.000Z</time>
      </trkpt>
      <trkpt lat="45.34119" lon="4.25942">
        <ele>758.20001220703</ele>
        <time>2019-09-19T11:53:50.000Z</time>
      </trkpt>
      <trkpt lat="45.34111" lon="4.26018">
        <ele>757.20001220703</ele>
        <time>2019-09-19T11:54:10.000Z</time>
      </trkpt>
      <trkpt lat="45.34104" lon="4.26094">
        <ele>752.59997558594</ele>
        <time>2019-09-19T11:54:29.000Z</time>
      </trkpt>
      <trkpt lat="45.34093" lon="4.26171">
        <ele>754</ele>
        <time>2019-09-19T11:54:48.000Z</time>
      </trkpt>
      <trkpt lat="45.3409" lon="4.26196">
        <ele>755.40002441406</ele>
        <time>2019-09-19T11:54:52.000Z</time>
      </trkpt>
      <trkpt lat="45.34087" lon="4.26234">
        <ele>758.59997558594</ele>
        <time>2019-09-19T11:54:58.000Z</time>
      </trkpt>
      <trkpt lat="45.34083" lon="4.26248">
        <ele>758</ele>
        <time>2019-09-19T11:55:00.000Z</time>
      </trkpt>
      <trkpt lat="45.34071" lon="4.26283">
        <ele>757.20001220703</ele>
        <time>2019-09-19T11:55:04.000Z</time>
      </trkpt>
      <trkpt lat="45.34059" lon="4.26307">
        <ele>757.79998779297</ele>
        <time>2019-09-19T11:55:07.000Z</time>
      </trkpt>
      <trkpt lat="45.34053" lon="4.26323">
        <ele>756.59997558594</ele>
        <time>2019-09-19T11:55:09.000Z</time>
      </trkpt>
      <trkpt lat="45.34079" lon="4.26378">
        <ele>760</ele>
        <time>2019-09-19T11:55:20.000Z</time>
      </trkpt>
      <trkpt lat="45.34082" lon="4.26377">
        <ele>760.40002441406</ele>
        <time>2019-09-19T11:55:21.000Z</time>
      </trkpt>
      <trkpt lat="45.34134" lon="4.26353">
        <ele>764.20001220703</ele>
        <time>2019-09-19T11:55:41.000Z</time>
      </trkpt>
      <trkpt lat="45.34183" lon="4.26321">
        <ele>767</ele>
        <time>2019-09-19T11:56:02.000Z</time>
      </trkpt>
      <trkpt lat="45.3423" lon="4.26348">
        <ele>774.79998779297</ele>
        <time>2019-09-19T11:56:25.000Z</time>
      </trkpt>
      <trkpt lat="45.34237" lon="4.26349">
        <ele>775.40002441406</ele>
        <time>2019-09-19T11:56:29.000Z</time>
      </trkpt>
      <trkpt lat="45.34261" lon="4.26348">
        <ele>777</ele>
        <time>2019-09-19T11:56:42.000Z</time>
      </trkpt>
      <trkpt lat="45.34263" lon="4.26358">
        <ele>778</ele>
        <time>2019-09-19T11:56:46.000Z</time>
      </trkpt>
      <trkpt lat="45.34289" lon="4.26363">
        <ele>780.40002441406</ele>
        <time>2019-09-19T11:57:04.000Z</time>
      </trkpt>
      <trkpt lat="45.34339" lon="4.2633">
        <ele>782.20001220703</ele>
        <time>2019-09-19T11:57:25.000Z</time>
      </trkpt>
      <trkpt lat="45.34391" lon="4.26306">
        <ele>783.79998779297</ele>
        <time>2019-09-19T11:57:41.000Z</time>
      </trkpt>
      <trkpt lat="45.34442" lon="4.26276">
        <ele>784.40002441406</ele>
        <time>2019-09-19T11:57:54.000Z</time>
      </trkpt>
      <trkpt lat="45.34491" lon="4.26238">
        <ele>785.20001220703</ele>
        <time>2019-09-19T11:58:06.000Z</time>
      </trkpt>
      <trkpt lat="45.34538" lon="4.26195">
        <ele>786.20001220703</ele>
        <time>2019-09-19T11:58:17.000Z</time>
      </trkpt>
      <trkpt lat="45.34579" lon="4.26162">
        <ele>784.59997558594</ele>
        <time>2019-09-19T11:58:26.000Z</time>
      </trkpt>
      <trkpt lat="45.34631" lon="4.26118">
        <ele>785.20001220703</ele>
        <time>2019-09-19T11:58:36.000Z</time>
      </trkpt>
      <trkpt lat="45.34655" lon="4.26097">
        <ele>781.59997558594</ele>
        <time>2019-09-19T11:58:40.000Z</time>
      </trkpt>
      <trkpt lat="45.34676" lon="4.26087">
        <ele>778.79998779297</ele>
        <time>2019-09-19T11:58:43.000Z</time>
      </trkpt>
      <trkpt lat="45.34731" lon="4.26063">
        <ele>772.79998779297</ele>
        <time>2019-09-19T11:58:50.000Z</time>
      </trkpt>
      <trkpt lat="45.3474" lon="4.26058">
        <ele>771.59997558594</ele>
        <time>2019-09-19T11:58:51.000Z</time>
      </trkpt>
      <trkpt lat="45.34788" lon="4.26007">
        <ele>765.79998779297</ele>
        <time>2019-09-19T11:58:57.000Z</time>
      </trkpt>
      <trkpt lat="45.34828" lon="4.25954">
        <ele>761.40002441406</ele>
        <time>2019-09-19T11:59:02.000Z</time>
      </trkpt>
      <trkpt lat="45.34867" lon="4.25894">
        <ele>757</ele>
        <time>2019-09-19T11:59:07.000Z</time>
      </trkpt>
      <trkpt lat="45.34907" lon="4.25835">
        <ele>753.79998779297</ele>
        <time>2019-09-19T11:59:12.000Z</time>
      </trkpt>
      <trkpt lat="45.34947" lon="4.25776">
        <ele>750.79998779297</ele>
        <time>2019-09-19T11:59:17.000Z</time>
      </trkpt>
      <trkpt lat="45.34985" lon="4.25719">
        <ele>748</ele>
        <time>2019-09-19T11:59:22.000Z</time>
      </trkpt>
      <trkpt lat="45.35025" lon="4.25655">
        <ele>747.59997558594</ele>
        <time>2019-09-19T11:59:28.000Z</time>
      </trkpt>
      <trkpt lat="45.35069" lon="4.2559">
        <ele>744.20001220703</ele>
        <time>2019-09-19T11:59:35.000Z</time>
      </trkpt>
      <trkpt lat="45.35076" lon="4.25581">
        <ele>743.59997558594</ele>
        <time>2019-09-19T11:59:36.000Z</time>
      </trkpt>
      <trkpt lat="45.35126" lon="4.25542">
        <ele>740.40002441406</ele>
        <time>2019-09-19T11:59:42.000Z</time>
      </trkpt>
      <trkpt lat="45.35141" lon="4.25532">
        <ele>739.20001220703</ele>
        <time>2019-09-19T11:59:44.000Z</time>
      </trkpt>
      <trkpt lat="45.3518" lon="4.25532">
        <ele>736.40002441406</ele>
        <time>2019-09-19T11:59:49.000Z</time>
      </trkpt>
      <trkpt lat="45.35186" lon="4.25535">
        <ele>735.79998779297</ele>
        <time>2019-09-19T11:59:50.000Z</time>
      </trkpt>
      <trkpt lat="45.3524" lon="4.25519">
        <ele>733.40002441406</ele>
        <time>2019-09-19T12:00:00.000Z</time>
      </trkpt>
      <trkpt lat="45.35248" lon="4.25519">
        <ele>733.20001220703</ele>
        <time>2019-09-19T12:00:01.000Z</time>
      </trkpt>
      <trkpt lat="45.3531" lon="4.25521">
        <ele>730.59997558594</ele>
        <time>2019-09-19T12:00:08.000Z</time>
      </trkpt>
      <trkpt lat="45.35361" lon="4.25522">
        <ele>728.20001220703</ele>
        <time>2019-09-19T12:00:14.000Z</time>
      </trkpt>
      <trkpt lat="45.35416" lon="4.25526">
        <ele>726.59997558594</ele>
        <time>2019-09-19T12:00:21.000Z</time>
      </trkpt>
      <trkpt lat="45.35472" lon="4.25524">
        <ele>726</ele>
        <time>2019-09-19T12:00:33.000Z</time>
      </trkpt>
      <trkpt lat="45.35486" lon="4.25521">
        <ele>725.79998779297</ele>
        <time>2019-09-19T12:00:36.000Z</time>
      </trkpt>
      <trkpt lat="45.3552" lon="4.25522">
        <ele>726</ele>
        <time>2019-09-19T12:00:42.000Z</time>
      </trkpt>
      <trkpt lat="45.35574" lon="4.25522">
        <ele>726.20001220703</ele>
        <time>2019-09-19T12:00:51.000Z</time>
      </trkpt>
      <trkpt lat="45.3558" lon="4.25523">
        <ele>726.40002441406</ele>
        <time>2019-09-19T12:00:52.000Z</time>
      </trkpt>
      <trkpt lat="45.35606" lon="4.25512">
        <ele>726.59997558594</ele>
        <time>2019-09-19T12:00:58.000Z</time>
      </trkpt>
      <trkpt lat="45.35646" lon="4.25481">
        <ele>726.20001220703</ele>
        <time>2019-09-19T12:01:09.000Z</time>
      </trkpt>
      <trkpt lat="45.35653" lon="4.25475">
        <ele>726.40002441406</ele>
        <time>2019-09-19T12:01:11.000Z</time>
      </trkpt>
      <trkpt lat="45.35707" lon="4.25445">
        <ele>727.40002441406</ele>
        <time>2019-09-19T12:01:22.000Z</time>
      </trkpt>
      <trkpt lat="45.35746" lon="4.25428">
        <ele>727.59997558594</ele>
        <time>2019-09-19T12:01:30.000Z</time>
      </trkpt>
      <trkpt lat="45.35783" lon="4.25414">
        <ele>727.40002441406</ele>
        <time>2019-09-19T12:01:37.000Z</time>
      </trkpt>
      <trkpt lat="45.35836" lon="4.25395">
        <ele>725.40002441406</ele>
        <time>2019-09-19T12:01:46.000Z</time>
      </trkpt>
      <trkpt lat="45.35855" lon="4.2539">
        <ele>724</ele>
        <time>2019-09-19T12:01:49.000Z</time>
      </trkpt>
      <trkpt lat="45.3591" lon="4.25379">
        <ele>720</ele>
        <time>2019-09-19T12:01:58.000Z</time>
      </trkpt>
      <trkpt lat="45.35965" lon="4.25367">
        <ele>714.79998779297</ele>
        <time>2019-09-19T12:02:07.000Z</time>
      </trkpt>
      <trkpt lat="45.36021" lon="4.25369">
        <ele>715.40002441406</ele>
        <time>2019-09-19T12:02:16.000Z</time>
      </trkpt>
      <trkpt lat="45.36078" lon="4.25369">
        <ele>717.79998779297</ele>
        <time>2019-09-19T12:02:26.000Z</time>
      </trkpt>
      <trkpt lat="45.36133" lon="4.25361">
        <ele>719.59997558594</ele>
        <time>2019-09-19T12:02:41.000Z</time>
      </trkpt>
      <trkpt lat="45.36188" lon="4.25356">
        <ele>719.20001220703</ele>
        <time>2019-09-19T12:02:59.000Z</time>
      </trkpt>
      <trkpt lat="45.36245" lon="4.25359">
        <ele>720</ele>
        <time>2019-09-19T12:03:16.000Z</time>
      </trkpt>
      <trkpt lat="45.36296" lon="4.25387">
        <ele>720.59997558594</ele>
        <time>2019-09-19T12:03:35.000Z</time>
      </trkpt>
      <trkpt lat="45.36316" lon="4.25407">
        <ele>719</ele>
        <time>2019-09-19T12:03:42.000Z</time>
      </trkpt>
      <trkpt lat="45.36327" lon="4.25418">
        <ele>718.20001220703</ele>
        <time>2019-09-19T12:03:45.000Z</time>
      </trkpt>
      <trkpt lat="45.36346" lon="4.25441">
        <ele>716.79998779297</ele>
        <time>2019-09-19T12:03:50.000Z</time>
      </trkpt>
      <trkpt lat="45.36358" lon="4.25451">
        <ele>715.20001220703</ele>
        <time>2019-09-19T12:03:53.000Z</time>
      </trkpt>
      <trkpt lat="45.36373" lon="4.25458">
        <ele>713.20001220703</ele>
        <time>2019-09-19T12:03:56.000Z</time>
      </trkpt>
      <trkpt lat="45.36384" lon="4.25469">
        <ele>711.59997558594</ele>
        <time>2019-09-19T12:03:59.000Z</time>
      </trkpt>
      <trkpt lat="45.36395" lon="4.25477">
        <ele>710</ele>
        <time>2019-09-19T12:04:02.000Z</time>
      </trkpt>
      <trkpt lat="45.36446" lon="4.25509">
        <ele>702.59997558594</ele>
        <time>2019-09-19T12:04:16.000Z</time>
      </trkpt>
      <trkpt lat="45.36499" lon="4.25535">
        <ele>693</ele>
        <time>2019-09-19T12:04:29.000Z</time>
      </trkpt>
      <trkpt lat="45.36552" lon="4.25559">
        <ele>683.20001220703</ele>
        <time>2019-09-19T12:04:47.000Z</time>
      </trkpt>
      <trkpt lat="45.36604" lon="4.25582">
        <ele>675</ele>
        <time>2019-09-19T12:05:04.000Z</time>
      </trkpt>
      <trkpt lat="45.36613" lon="4.25585">
        <ele>673.20001220703</ele>
        <time>2019-09-19T12:05:07.000Z</time>
      </trkpt>
      <trkpt lat="45.36626" lon="4.25559">
        <ele>668</ele>
        <time>2019-09-19T12:05:13.000Z</time>
      </trkpt>
      <trkpt lat="45.36628" lon="4.25546">
        <ele>666.20001220703</ele>
        <time>2019-09-19T12:05:18.000Z</time>
      </trkpt>
      <trkpt lat="45.36629" lon="4.25545">
        <ele>666</ele>
        <time>2019-09-19T12:06:49.000Z</time>
      </trkpt>
      <trkpt lat="45.36629" lon="4.25545">
        <ele>666</ele>
        <time>2019-09-19T12:06:50.000Z</time>
      </trkpt>
      <trkpt lat="45.36631" lon="4.25528">
        <ele>664</ele>
        <time>2019-09-19T12:06:55.000Z</time>
      </trkpt>
      <trkpt lat="45.36638" lon="4.25448">
        <ele>654.20001220703</ele>
        <time>2019-09-19T12:07:10.000Z</time>
      </trkpt>
      <trkpt lat="45.36642" lon="4.25401">
        <ele>649.20001220703</ele>
        <time>2019-09-19T12:07:18.000Z</time>
      </trkpt>
      <trkpt lat="45.36619" lon="4.25375">
        <ele>651.40002441406</ele>
        <time>2019-09-19T12:07:24.000Z</time>
      </trkpt>
      <trkpt lat="45.36615" lon="4.25372">
        <ele>652</ele>
        <time>2019-09-19T12:07:25.000Z</time>
      </trkpt>
      <trkpt lat="45.36615" lon="4.25354">
        <ele>650.59997558594</ele>
        <time>2019-09-19T12:07:31.000Z</time>
      </trkpt>
      <trkpt lat="45.36641" lon="4.25336">
        <ele>645.20001220703</ele>
        <time>2019-09-19T12:07:39.000Z</time>
      </trkpt>
      <trkpt lat="45.36655" lon="4.25355">
        <ele>644</ele>
        <time>2019-09-19T12:07:44.000Z</time>
      </trkpt>
      <trkpt lat="45.36661" lon="4.25367">
        <ele>643.79998779297</ele>
        <time>2019-09-19T12:07:46.000Z</time>
      </trkpt>
      <trkpt lat="45.36676" lon="4.25394">
        <ele>644</ele>
        <time>2019-09-19T12:07:50.000Z</time>
      </trkpt>
      <trkpt lat="45.36713" lon="4.25457">
        <ele>644</ele>
        <time>2019-09-19T12:07:59.000Z</time>
      </trkpt>
      <trkpt lat="45.3674" lon="4.25501">
        <ele>646.20001220703</ele>
        <time>2019-09-19T12:08:06.000Z</time>
      </trkpt>
      <trkpt lat="45.36771" lon="4.25553">
        <ele>648.79998779297</ele>
        <time>2019-09-19T12:08:15.000Z</time>
      </trkpt>
      <trkpt lat="45.36785" lon="4.25567">
        <ele>649.40002441406</ele>
        <time>2019-09-19T12:08:20.000Z</time>
      </trkpt>
      <trkpt lat="45.36799" lon="4.2556">
        <ele>649.20001220703</ele>
        <time>2019-09-19T12:08:24.000Z</time>
      </trkpt>
      <trkpt lat="45.36821" lon="4.25553">
        <ele>651.40002441406</ele>
        <time>2019-09-19T12:08:28.000Z</time>
      </trkpt>
      <trkpt lat="45.36834" lon="4.25545">
        <ele>654</ele>
        <time>2019-09-19T12:08:31.000Z</time>
      </trkpt>
      <trkpt lat="45.36864" lon="4.25484">
        <ele>661</ele>
        <time>2019-09-19T12:08:53.000Z</time>
      </trkpt>
      <trkpt lat="45.36874" lon="4.25465">
        <ele>663.79998779297</ele>
        <time>2019-09-19T12:09:03.000Z</time>
      </trkpt>
      <trkpt lat="45.36885" lon="4.25448">
        <ele>666.40002441406</ele>
        <time>2019-09-19T12:09:14.000Z</time>
      </trkpt>
      <trkpt lat="45.369" lon="4.25428">
        <ele>668.20001220703</ele>
        <time>2019-09-19T12:09:28.000Z</time>
      </trkpt>
      <trkpt lat="45.36913" lon="4.25412">
        <ele>669.79998779297</ele>
        <time>2019-09-19T12:09:37.000Z</time>
      </trkpt>
      <trkpt lat="45.36954" lon="4.25363">
        <ele>673.79998779297</ele>
        <time>2019-09-19T12:10:11.000Z</time>
      </trkpt>
      <trkpt lat="45.37001" lon="4.25319">
        <ele>676.40002441406</ele>
        <time>2019-09-19T12:10:37.000Z</time>
      </trkpt>
      <trkpt lat="45.37051" lon="4.25288">
        <ele>684.59997558594</ele>
        <time>2019-09-19T12:10:54.000Z</time>
      </trkpt>
      <trkpt lat="45.37103" lon="4.25266">
        <ele>683.59997558594</ele>
        <time>2019-09-19T12:11:06.000Z</time>
      </trkpt>
      <trkpt lat="45.37129" lon="4.25261">
        <ele>682.79998779297</ele>
        <time>2019-09-19T12:11:11.000Z</time>
      </trkpt>
      <trkpt lat="45.37149" lon="4.25257">
        <ele>680.59997558594</ele>
        <time>2019-09-19T12:11:16.000Z</time>
      </trkpt>
      <trkpt lat="45.37154" lon="4.25255">
        <ele>680.20001220703</ele>
        <time>2019-09-19T12:11:58.000Z</time>
      </trkpt>
      <trkpt lat="45.37206" lon="4.2523">
        <ele>676.20001220703</ele>
        <time>2019-09-19T12:12:11.000Z</time>
      </trkpt>
      <trkpt lat="45.37238" lon="4.2521">
        <ele>677.79998779297</ele>
        <time>2019-09-19T12:12:17.000Z</time>
      </trkpt>
      <trkpt lat="45.37248" lon="4.25206">
        <ele>677.79998779297</ele>
        <time>2019-09-19T12:12:19.000Z</time>
      </trkpt>
      <trkpt lat="45.37268" lon="4.252">
        <ele>677.40002441406</ele>
        <time>2019-09-19T12:12:23.000Z</time>
      </trkpt>
      <trkpt lat="45.37293" lon="4.25195">
        <ele>677</ele>
        <time>2019-09-19T12:12:28.000Z</time>
      </trkpt>
      <trkpt lat="45.37309" lon="4.25194">
        <ele>677.59997558594</ele>
        <time>2019-09-19T12:12:31.000Z</time>
      </trkpt>
      <trkpt lat="45.37361" lon="4.25174">
        <ele>679.59997558594</ele>
        <time>2019-09-19T12:12:41.000Z</time>
      </trkpt>
      <trkpt lat="45.37417" lon="4.25165">
        <ele>679</ele>
        <time>2019-09-19T12:12:52.000Z</time>
      </trkpt>
      <trkpt lat="45.37426" lon="4.25165">
        <ele>679</ele>
        <time>2019-09-19T12:12:54.000Z</time>
      </trkpt>
      <trkpt lat="45.37481" lon="4.25167">
        <ele>678.20001220703</ele>
        <time>2019-09-19T12:13:06.000Z</time>
      </trkpt>
      <trkpt lat="45.37537" lon="4.25175">
        <ele>680.59997558594</ele>
        <time>2019-09-19T12:13:18.000Z</time>
      </trkpt>
      <trkpt lat="45.37594" lon="4.25186">
        <ele>684.40002441406</ele>
        <time>2019-09-19T12:13:30.000Z</time>
      </trkpt>
      <trkpt lat="45.37646" lon="4.25206">
        <ele>687.79998779297</ele>
        <time>2019-09-19T12:13:44.000Z</time>
      </trkpt>
      <trkpt lat="45.37699" lon="4.25235">
        <ele>691</ele>
        <time>2019-09-19T12:14:00.000Z</time>
      </trkpt>
      <trkpt lat="45.37746" lon="4.25257">
        <ele>695.59997558594</ele>
        <time>2019-09-19T12:14:13.000Z</time>
      </trkpt>
      <trkpt lat="45.378" lon="4.25274">
        <ele>703.20001220703</ele>
        <time>2019-09-19T12:14:26.000Z</time>
      </trkpt>
      <trkpt lat="45.37811" lon="4.25274">
        <ele>704.59997558594</ele>
        <time>2019-09-19T12:14:29.000Z</time>
      </trkpt>
      <trkpt lat="45.37806" lon="4.25257">
        <ele>706.20001220703</ele>
        <time>2019-09-19T12:14:34.000Z</time>
      </trkpt>
      <trkpt lat="45.37786" lon="4.25183">
        <ele>710.40002441406</ele>
        <time>2019-09-19T12:14:55.000Z</time>
      </trkpt>
      <trkpt lat="45.37782" lon="4.25168">
        <ele>710</ele>
        <time>2019-09-19T12:15:01.000Z</time>
      </trkpt>
      <trkpt lat="45.37779" lon="4.25154">
        <ele>709.79998779297</ele>
        <time>2019-09-19T12:15:06.000Z</time>
      </trkpt>
      <trkpt lat="45.37769" lon="4.25079">
        <ele>709.20001220703</ele>
        <time>2019-09-19T12:15:26.000Z</time>
      </trkpt>
      <trkpt lat="45.37767" lon="4.2504">
        <ele>707.59997558594</ele>
        <time>2019-09-19T12:15:32.000Z</time>
      </trkpt>
      <trkpt lat="45.37767" lon="4.24981">
        <ele>705</ele>
        <time>2019-09-19T12:15:40.000Z</time>
      </trkpt>
      <trkpt lat="45.37768" lon="4.24952">
        <ele>702</ele>
        <time>2019-09-19T12:15:44.000Z</time>
      </trkpt>
      <trkpt lat="45.37791" lon="4.24925">
        <ele>703.40002441406</ele>
        <time>2019-09-19T12:15:53.000Z</time>
      </trkpt>
      <trkpt lat="45.37823" lon="4.24863">
        <ele>704.40002441406</ele>
        <time>2019-09-19T12:16:14.000Z</time>
      </trkpt>
      <trkpt lat="45.37862" lon="4.24807">
        <ele>706.79998779297</ele>
        <time>2019-09-19T12:16:34.000Z</time>
      </trkpt>
      <trkpt lat="45.37906" lon="4.24758">
        <ele>706.40002441406</ele>
        <time>2019-09-19T12:16:53.000Z</time>
      </trkpt>
      <trkpt lat="45.37959" lon="4.24744">
        <ele>713</ele>
        <time>2019-09-19T12:17:15.000Z</time>
      </trkpt>
      <trkpt lat="45.3801" lon="4.24722">
        <ele>718.40002441406</ele>
        <time>2019-09-19T12:17:41.000Z</time>
      </trkpt>
      <trkpt lat="45.3806" lon="4.24692">
        <ele>723</ele>
        <time>2019-09-19T12:18:11.000Z</time>
      </trkpt>
      <trkpt lat="45.38113" lon="4.24678">
        <ele>723.40002441406</ele>
        <time>2019-09-19T12:18:32.000Z</time>
      </trkpt>
      <trkpt lat="45.38165" lon="4.24646">
        <ele>722.20001220703</ele>
        <time>2019-09-19T12:18:46.000Z</time>
      </trkpt>
      <trkpt lat="45.38178" lon="4.24635">
        <ele>721.20001220703</ele>
        <time>2019-09-19T12:18:49.000Z</time>
      </trkpt>
      <trkpt lat="45.38203" lon="4.24621">
        <ele>719.79998779297</ele>
        <time>2019-09-19T12:18:54.000Z</time>
      </trkpt>
      <trkpt lat="45.38254" lon="4.24581">
        <ele>718.20001220703</ele>
        <time>2019-09-19T12:19:04.000Z</time>
      </trkpt>
      <trkpt lat="45.38298" lon="4.24542">
        <ele>715</ele>
        <time>2019-09-19T12:19:14.000Z</time>
      </trkpt>
      <trkpt lat="45.38311" lon="4.24537">
        <ele>714.59997558594</ele>
        <time>2019-09-19T12:19:17.000Z</time>
      </trkpt>
      <trkpt lat="45.38338" lon="4.24516">
        <ele>712.40002441406</ele>
        <time>2019-09-19T12:19:24.000Z</time>
      </trkpt>
      <trkpt lat="45.3838" lon="4.24483">
        <ele>711.40002441406</ele>
        <time>2019-09-19T12:19:32.000Z</time>
      </trkpt>
      <trkpt lat="45.38389" lon="4.24476">
        <ele>710.20001220703</ele>
        <time>2019-09-19T12:19:34.000Z</time>
      </trkpt>
      <trkpt lat="45.38418" lon="4.24456">
        <ele>707</ele>
        <time>2019-09-19T12:19:40.000Z</time>
      </trkpt>
      <trkpt lat="45.38437" lon="4.24448">
        <ele>706</ele>
        <time>2019-09-19T12:19:44.000Z</time>
      </trkpt>
      <trkpt lat="45.38446" lon="4.24445">
        <ele>705.59997558594</ele>
        <time>2019-09-19T12:19:46.000Z</time>
      </trkpt>
      <trkpt lat="45.38459" lon="4.24444">
        <ele>705.20001220703</ele>
        <time>2019-09-19T12:19:49.000Z</time>
      </trkpt>
      <trkpt lat="45.38476" lon="4.24451">
        <ele>703.79998779297</ele>
        <time>2019-09-19T12:19:53.000Z</time>
      </trkpt>
      <trkpt lat="45.38481" lon="4.24453">
        <ele>703.40002441406</ele>
        <time>2019-09-19T12:19:54.000Z</time>
      </trkpt>
      <trkpt lat="45.38494" lon="4.24457">
        <ele>702</ele>
        <time>2019-09-19T12:19:57.000Z</time>
      </trkpt>
      <trkpt lat="45.38525" lon="4.24456">
        <ele>698.59997558594</ele>
        <time>2019-09-19T12:20:03.000Z</time>
      </trkpt>
      <trkpt lat="45.38577" lon="4.24427">
        <ele>691.59997558594</ele>
        <time>2019-09-19T12:20:17.000Z</time>
      </trkpt>
      <trkpt lat="45.38633" lon="4.24412">
        <ele>683.59997558594</ele>
        <time>2019-09-19T12:20:37.000Z</time>
      </trkpt>
      <trkpt lat="45.38686" lon="4.24401">
        <ele>674.79998779297</ele>
        <time>2019-09-19T12:20:50.000Z</time>
      </trkpt>
      <trkpt lat="45.38723" lon="4.24397">
        <ele>667.79998779297</ele>
        <time>2019-09-19T12:21:00.000Z</time>
      </trkpt>
      <trkpt lat="45.38778" lon="4.24392">
        <ele>658.59997558594</ele>
        <time>2019-09-19T12:21:18.000Z</time>
      </trkpt>
      <trkpt lat="45.38795" lon="4.24389">
        <ele>655.20001220703</ele>
        <time>2019-09-19T12:21:29.000Z</time>
      </trkpt>
      <trkpt lat="45.38831" lon="4.24388">
        <ele>647.59997558594</ele>
        <time>2019-09-19T12:21:41.000Z</time>
      </trkpt>
      <trkpt lat="45.38866" lon="4.24404">
        <ele>642.40002441406</ele>
        <time>2019-09-19T12:21:57.000Z</time>
      </trkpt>
      <trkpt lat="45.38876" lon="4.24408">
        <ele>640.59997558594</ele>
        <time>2019-09-19T12:22:01.000Z</time>
      </trkpt>
      <trkpt lat="45.38918" lon="4.24454">
        <ele>632</ele>
        <time>2019-09-19T12:22:24.000Z</time>
      </trkpt>
      <trkpt lat="45.38941" lon="4.24512">
        <ele>625.40002441406</ele>
        <time>2019-09-19T12:22:39.000Z</time>
      </trkpt>
      <trkpt lat="45.38949" lon="4.24529">
        <ele>622.59997558594</ele>
        <time>2019-09-19T12:22:46.000Z</time>
      </trkpt>
      <trkpt lat="45.38958" lon="4.24583">
        <ele>621.20001220703</ele>
        <time>2019-09-19T12:23:03.000Z</time>
      </trkpt>
      <trkpt lat="45.38962" lon="4.24595">
        <ele>620.59997558594</ele>
        <time>2019-09-19T12:23:07.000Z</time>
      </trkpt>
      <trkpt lat="45.39" lon="4.2465">
        <ele>608.40002441406</ele>
        <time>2019-09-19T12:23:29.000Z</time>
      </trkpt>
      <trkpt lat="45.39045" lon="4.2469">
        <ele>594.20001220703</ele>
        <time>2019-09-19T12:23:52.000Z</time>
      </trkpt>
      <trkpt lat="45.39098" lon="4.24712">
        <ele>581.79998779297</ele>
        <time>2019-09-19T12:24:14.000Z</time>
      </trkpt>
      <trkpt lat="45.3915" lon="4.24696">
        <ele>572</ele>
        <time>2019-09-19T12:24:35.000Z</time>
      </trkpt>
      <trkpt lat="45.39192" lon="4.24645">
        <ele>564.40002441406</ele>
        <time>2019-09-19T12:25:00.000Z</time>
      </trkpt>
      <trkpt lat="45.39206" lon="4.24638">
        <ele>562</ele>
        <time>2019-09-19T12:25:03.000Z</time>
      </trkpt>
      <trkpt lat="45.39263" lon="4.24613">
        <ele>559.20001220703</ele>
        <time>2019-09-19T12:25:11.000Z</time>
      </trkpt>
      <trkpt lat="45.39292" lon="4.24601">
        <ele>557.59997558594</ele>
        <time>2019-09-19T12:25:15.000Z</time>
      </trkpt>
      <trkpt lat="45.39305" lon="4.24593">
        <ele>556.40002441406</ele>
        <time>2019-09-19T12:25:19.000Z</time>
      </trkpt>
      <trkpt lat="45.39294" lon="4.24557">
        <ele>554.40002441406</ele>
        <time>2019-09-19T12:25:25.000Z</time>
      </trkpt>
      <trkpt lat="45.39263" lon="4.24506">
        <ele>552.59997558594</ele>
        <time>2019-09-19T12:25:32.000Z</time>
      </trkpt>
      <trkpt lat="45.3923" lon="4.24442">
        <ele>549.59997558594</ele>
        <time>2019-09-19T12:25:40.000Z</time>
      </trkpt>
      <trkpt lat="45.39222" lon="4.24425">
        <ele>551.59997558594</ele>
        <time>2019-09-19T12:25:42.000Z</time>
      </trkpt>
      <trkpt lat="45.39214" lon="4.24396">
        <ele>554.59997558594</ele>
        <time>2019-09-19T12:25:45.000Z</time>
      </trkpt>
      <trkpt lat="45.3922" lon="4.24358">
        <ele>556.59997558594</ele>
        <time>2019-09-19T12:25:49.000Z</time>
      </trkpt>
      <trkpt lat="45.39226" lon="4.2428">
        <ele>559.20001220703</ele>
        <time>2019-09-19T12:26:07.000Z</time>
      </trkpt>
      <trkpt lat="45.392" lon="4.24208">
        <ele>557.40002441406</ele>
        <time>2019-09-19T12:26:24.000Z</time>
      </trkpt>
      <trkpt lat="45.39162" lon="4.2415">
        <ele>554.20001220703</ele>
        <time>2019-09-19T12:26:31.000Z</time>
      </trkpt>
      <trkpt lat="45.39133" lon="4.24119">
        <ele>552.59997558594</ele>
        <time>2019-09-19T12:26:35.000Z</time>
      </trkpt>
      <trkpt lat="45.39114" lon="4.24087">
        <ele>548.59997558594</ele>
        <time>2019-09-19T12:26:38.000Z</time>
      </trkpt>
      <trkpt lat="45.39071" lon="4.24025">
        <ele>540</ele>
        <time>2019-09-19T12:26:44.000Z</time>
      </trkpt>
      <trkpt lat="45.39058" lon="4.23995">
        <ele>534.79998779297</ele>
        <time>2019-09-19T12:26:47.000Z</time>
      </trkpt>
      <trkpt lat="45.39036" lon="4.23937">
        <ele>527.59997558594</ele>
        <time>2019-09-19T12:26:56.000Z</time>
      </trkpt>
      <trkpt lat="45.39018" lon="4.23881">
        <ele>524.79998779297</ele>
        <time>2019-09-19T12:27:02.000Z</time>
      </trkpt>
      <trkpt lat="45.38999" lon="4.23837">
        <ele>523.40002441406</ele>
        <time>2019-09-19T12:27:07.000Z</time>
      </trkpt>
      <trkpt lat="45.38979" lon="4.23762">
        <ele>519.20001220703</ele>
        <time>2019-09-19T12:27:14.000Z</time>
      </trkpt>
      <trkpt lat="45.38974" lon="4.23745">
        <ele>518.40002441406</ele>
        <time>2019-09-19T12:27:17.000Z</time>
      </trkpt>
      <trkpt lat="45.3897" lon="4.23737">
        <ele>518.20001220703</ele>
        <time>2019-09-19T12:27:21.000Z</time>
      </trkpt>
      <trkpt lat="45.38969" lon="4.23734">
        <ele>518</ele>
        <time>2019-09-19T12:27:49.000Z</time>
      </trkpt>
      <trkpt lat="45.38949" lon="4.23701">
        <ele>517.40002441406</ele>
        <time>2019-09-19T12:27:56.000Z</time>
      </trkpt>
      <trkpt lat="45.38926" lon="4.23664">
        <ele>515</ele>
        <time>2019-09-19T12:28:01.000Z</time>
      </trkpt>
      <trkpt lat="45.38894" lon="4.23598">
        <ele>508.79998779297</ele>
        <time>2019-09-19T12:28:13.000Z</time>
      </trkpt>
      <trkpt lat="45.38864" lon="4.23534">
        <ele>500.20001220703</ele>
        <time>2019-09-19T12:28:44.000Z</time>
      </trkpt>
      <trkpt lat="45.38829" lon="4.23471">
        <ele>499.79998779297</ele>
        <time>2019-09-19T12:28:59.000Z</time>
      </trkpt>
      <trkpt lat="45.3882" lon="4.23454">
        <ele>499.39999389648</ele>
        <time>2019-09-19T12:29:02.000Z</time>
      </trkpt>
      <trkpt lat="45.38808" lon="4.23414">
        <ele>496.60000610352</ele>
        <time>2019-09-19T12:29:08.000Z</time>
      </trkpt>
      <trkpt lat="45.38776" lon="4.23352">
        <ele>493.20001220703</ele>
        <time>2019-09-19T12:29:17.000Z</time>
      </trkpt>
      <trkpt lat="45.38754" lon="4.23329">
        <ele>492.60000610352</ele>
        <time>2019-09-19T12:29:24.000Z</time>
      </trkpt>
      <trkpt lat="45.38708" lon="4.23281">
        <ele>492.20001220703</ele>
        <time>2019-09-19T12:29:33.000Z</time>
      </trkpt>
      <trkpt lat="45.38694" lon="4.23264">
        <ele>492.79998779297</ele>
        <time>2019-09-19T12:29:36.000Z</time>
      </trkpt>
      <trkpt lat="45.38688" lon="4.23209">
        <ele>491.20001220703</ele>
        <time>2019-09-19T12:29:42.000Z</time>
      </trkpt>
      <trkpt lat="45.38689" lon="4.232">
        <ele>490.79998779297</ele>
        <time>2019-09-19T12:29:43.000Z</time>
      </trkpt>
      <trkpt lat="45.38692" lon="4.23169">
        <ele>486.79998779297</ele>
        <time>2019-09-19T12:29:47.000Z</time>
      </trkpt>
      <trkpt lat="45.38689" lon="4.23141">
        <ele>485.39999389648</ele>
        <time>2019-09-19T12:29:51.000Z</time>
      </trkpt>
      <trkpt lat="45.38713" lon="4.23076">
        <ele>477.39999389648</ele>
        <time>2019-09-19T12:29:58.000Z</time>
      </trkpt>
      <trkpt lat="45.38727" lon="4.23064">
        <ele>472.60000610352</ele>
        <time>2019-09-19T12:30:00.000Z</time>
      </trkpt>
      <trkpt lat="45.38775" lon="4.23021">
        <ele>458.79998779297</ele>
        <time>2019-09-19T12:30:07.000Z</time>
      </trkpt>
      <trkpt lat="45.38773" lon="4.22991">
        <ele>455</ele>
        <time>2019-09-19T12:30:13.000Z</time>
      </trkpt>
      <trkpt lat="45.3877" lon="4.22985">
        <ele>454.60000610352</ele>
        <time>2019-09-19T12:30:14.000Z</time>
      </trkpt>
      <trkpt lat="45.38748" lon="4.22977">
        <ele>455</ele>
        <time>2019-09-19T12:30:18.000Z</time>
      </trkpt>
      <trkpt lat="45.38737" lon="4.22973">
        <ele>455.79998779297</ele>
        <time>2019-09-19T12:30:20.000Z</time>
      </trkpt>
      <trkpt lat="45.38678" lon="4.22959">
        <ele>456.39999389648</ele>
        <time>2019-09-19T12:30:28.000Z</time>
      </trkpt>
      <trkpt lat="45.38648" lon="4.22958">
        <ele>456.20001220703</ele>
        <time>2019-09-19T12:30:32.000Z</time>
      </trkpt>
      <trkpt lat="45.38633" lon="4.22958">
        <ele>456</ele>
        <time>2019-09-19T12:30:34.000Z</time>
      </trkpt>
      <trkpt lat="45.3861" lon="4.22954">
        <ele>455.20001220703</ele>
        <time>2019-09-19T12:30:37.000Z</time>
      </trkpt>
      <trkpt lat="45.38582" lon="4.22933">
        <ele>451.79998779297</ele>
        <time>2019-09-19T12:30:41.000Z</time>
      </trkpt>
      <trkpt lat="45.38576" lon="4.22925">
        <ele>450.60000610352</ele>
        <time>2019-09-19T12:30:42.000Z</time>
      </trkpt>
      <trkpt lat="45.3854" lon="4.22877">
        <ele>443.79998779297</ele>
        <time>2019-09-19T12:30:48.000Z</time>
      </trkpt>
      <trkpt lat="45.38485" lon="4.22839">
        <ele>437.79998779297</ele>
        <time>2019-09-19T12:30:55.000Z</time>
      </trkpt>
      <trkpt lat="45.38468" lon="4.22831">
        <ele>436.39999389648</ele>
        <time>2019-09-19T12:30:57.000Z</time>
      </trkpt>
      <trkpt lat="45.38439" lon="4.22819">
        <ele>434.79998779297</ele>
        <time>2019-09-19T12:31:01.000Z</time>
      </trkpt>
      <trkpt lat="45.3842" lon="4.22786">
        <ele>431.60000610352</ele>
        <time>2019-09-19T12:31:06.000Z</time>
      </trkpt>
      <trkpt lat="45.38415" lon="4.22784">
        <ele>431.20001220703</ele>
        <time>2019-09-19T12:31:07.000Z</time>
      </trkpt>
      <trkpt lat="45.38378" lon="4.22806">
        <ele>431.39999389648</ele>
        <time>2019-09-19T12:31:17.000Z</time>
      </trkpt>
      <trkpt lat="45.38367" lon="4.22833">
        <ele>432.60000610352</ele>
        <time>2019-09-19T12:31:21.000Z</time>
      </trkpt>
      <trkpt lat="45.38349" lon="4.22838">
        <ele>432.20001220703</ele>
        <time>2019-09-19T12:31:25.000Z</time>
      </trkpt>
      <trkpt lat="45.38338" lon="4.22795">
        <ele>430.79998779297</ele>
        <time>2019-09-19T12:31:32.000Z</time>
      </trkpt>
      <trkpt lat="45.38338" lon="4.22781">
        <ele>430.20001220703</ele>
        <time>2019-09-19T12:31:34.000Z</time>
      </trkpt>
      <trkpt lat="45.3834" lon="4.22766">
        <ele>429.79998779297</ele>
        <time>2019-09-19T12:31:36.000Z</time>
      </trkpt>
      <trkpt lat="45.38345" lon="4.22723">
        <ele>429.39999389648</ele>
        <time>2019-09-19T12:31:41.000Z</time>
      </trkpt>
      <trkpt lat="45.38343" lon="4.22639">
        <ele>427.79998779297</ele>
        <time>2019-09-19T12:31:49.000Z</time>
      </trkpt>
      <trkpt lat="45.38338" lon="4.22596">
        <ele>427.20001220703</ele>
        <time>2019-09-19T12:31:53.000Z</time>
      </trkpt>
      <trkpt lat="45.38335" lon="4.22578">
        <ele>427</ele>
        <time>2019-09-19T12:31:55.000Z</time>
      </trkpt>
      <trkpt lat="45.38326" lon="4.22543">
        <ele>426.39999389648</ele>
        <time>2019-09-19T12:32:00.000Z</time>
      </trkpt>
      <trkpt lat="45.38325" lon="4.22527">
        <ele>426</ele>
        <time>2019-09-19T12:32:02.000Z</time>
      </trkpt>
      <trkpt lat="45.38328" lon="4.22447">
        <ele>426.60000610352</ele>
        <time>2019-09-19T12:32:10.000Z</time>
      </trkpt>
      <trkpt lat="45.38333" lon="4.22393">
        <ele>424.20001220703</ele>
        <time>2019-09-19T12:32:15.000Z</time>
      </trkpt>
      <trkpt lat="45.38331" lon="4.22353">
        <ele>424</ele>
        <time>2019-09-19T12:32:19.000Z</time>
      </trkpt>
      <trkpt lat="45.38304" lon="4.22294">
        <ele>422.39999389648</ele>
        <time>2019-09-19T12:32:30.000Z</time>
      </trkpt>
      <trkpt lat="45.38283" lon="4.22221">
        <ele>421.60000610352</ele>
        <time>2019-09-19T12:32:39.000Z</time>
      </trkpt>
      <trkpt lat="45.38274" lon="4.22206">
        <ele>421.39999389648</ele>
        <time>2019-09-19T12:32:41.000Z</time>
      </trkpt>
      <trkpt lat="45.38266" lon="4.22191">
        <ele>421</ele>
        <time>2019-09-19T12:32:43.000Z</time>
      </trkpt>
      <trkpt lat="45.38256" lon="4.22153">
        <ele>419</ele>
        <time>2019-09-19T12:32:48.000Z</time>
      </trkpt>
      <trkpt lat="45.38253" lon="4.22147">
        <ele>418.60000610352</ele>
        <time>2019-09-19T12:32:49.000Z</time>
      </trkpt>
      <trkpt lat="45.38236" lon="4.22127">
        <ele>417.20001220703</ele>
        <time>2019-09-19T12:32:53.000Z</time>
      </trkpt>
      <trkpt lat="45.38191" lon="4.22082">
        <ele>417.20001220703</ele>
        <time>2019-09-19T12:33:03.000Z</time>
      </trkpt>
      <trkpt lat="45.38142" lon="4.22048">
        <ele>419.60000610352</ele>
        <time>2019-09-19T12:33:13.000Z</time>
      </trkpt>
      <trkpt lat="45.38138" lon="4.22044">
        <ele>419.79998779297</ele>
        <time>2019-09-19T12:33:14.000Z</time>
      </trkpt>
      <trkpt lat="45.38121" lon="4.22032">
        <ele>420</ele>
        <time>2019-09-19T12:33:18.000Z</time>
      </trkpt>
      <trkpt lat="45.38108" lon="4.2202">
        <ele>419.60000610352</ele>
        <time>2019-09-19T12:33:21.000Z</time>
      </trkpt>
      <trkpt lat="45.38078" lon="4.21993">
        <ele>418.79998779297</ele>
        <time>2019-09-19T12:33:28.000Z</time>
      </trkpt>
      <trkpt lat="45.3807" lon="4.2197">
        <ele>417.79998779297</ele>
        <time>2019-09-19T12:33:33.000Z</time>
      </trkpt>
      <trkpt lat="45.38062" lon="4.21955">
        <ele>417.39999389648</ele>
        <time>2019-09-19T12:33:36.000Z</time>
      </trkpt>
      <trkpt lat="45.38016" lon="4.21906">
        <ele>421</ele>
        <time>2019-09-19T12:33:48.000Z</time>
      </trkpt>
      <trkpt lat="45.37988" lon="4.2187">
        <ele>424.79998779297</ele>
        <time>2019-09-19T12:33:55.000Z</time>
      </trkpt>
      <trkpt lat="45.37968" lon="4.21834">
        <ele>425</ele>
        <time>2019-09-19T12:34:01.000Z</time>
      </trkpt>
      <trkpt lat="45.37961" lon="4.21822">
        <ele>424.60000610352</ele>
        <time>2019-09-19T12:34:03.000Z</time>
      </trkpt>
      <trkpt lat="45.37925" lon="4.21759">
        <ele>422.79998779297</ele>
        <time>2019-09-19T12:34:14.000Z</time>
      </trkpt>
      <trkpt lat="45.37919" lon="4.21746">
        <ele>422.39999389648</ele>
        <time>2019-09-19T12:34:16.000Z</time>
      </trkpt>
      <trkpt lat="45.37914" lon="4.21701">
        <ele>422.20001220703</ele>
        <time>2019-09-19T12:34:22.000Z</time>
      </trkpt>
      <trkpt lat="45.37913" lon="4.21695">
        <ele>422.20001220703</ele>
        <time>2019-09-19T12:34:23.000Z</time>
      </trkpt>
      <trkpt lat="45.37905" lon="4.21669">
        <ele>421</ele>
        <time>2019-09-19T12:34:27.000Z</time>
      </trkpt>
      <trkpt lat="45.37883" lon="4.21633">
        <ele>418.79998779297</ele>
        <time>2019-09-19T12:34:34.000Z</time>
      </trkpt>
      <trkpt lat="45.37878" lon="4.21607">
        <ele>418.20001220703</ele>
        <time>2019-09-19T12:34:38.000Z</time>
      </trkpt>
      <trkpt lat="45.37876" lon="4.216">
        <ele>418.20001220703</ele>
        <time>2019-09-19T12:34:39.000Z</time>
      </trkpt>
      <trkpt lat="45.37861" lon="4.21545">
        <ele>418.79998779297</ele>
        <time>2019-09-19T12:34:47.000Z</time>
      </trkpt>
      <trkpt lat="45.3785" lon="4.21487">
        <ele>420</ele>
        <time>2019-09-19T12:34:55.000Z</time>
      </trkpt>
      <trkpt lat="45.37846" lon="4.2146">
        <ele>421.39999389648</ele>
        <time>2019-09-19T12:34:59.000Z</time>
      </trkpt>
      <trkpt lat="45.37845" lon="4.21429">
        <ele>421.79998779297</ele>
        <time>2019-09-19T12:35:03.000Z</time>
      </trkpt>
      <trkpt lat="45.37836" lon="4.21347">
        <ele>421.20001220703</ele>
        <time>2019-09-19T12:35:12.000Z</time>
      </trkpt>
      <trkpt lat="45.37822" lon="4.2127">
        <ele>421.39999389648</ele>
        <time>2019-09-19T12:35:21.000Z</time>
      </trkpt>
      <trkpt lat="45.37822" lon="4.21262">
        <ele>421.60000610352</ele>
        <time>2019-09-19T12:35:22.000Z</time>
      </trkpt>
      <trkpt lat="45.37812" lon="4.21185">
        <ele>422.20001220703</ele>
        <time>2019-09-19T12:35:31.000Z</time>
      </trkpt>
      <trkpt lat="45.37811" lon="4.21107">
        <ele>422</ele>
        <time>2019-09-19T12:35:40.000Z</time>
      </trkpt>
      <trkpt lat="45.37811" lon="4.21091">
        <ele>422.60000610352</ele>
        <time>2019-09-19T12:35:42.000Z</time>
      </trkpt>
      <trkpt lat="45.37806" lon="4.21032">
        <ele>424.39999389648</ele>
        <time>2019-09-19T12:35:49.000Z</time>
      </trkpt>
      <trkpt lat="45.37805" lon="4.21025">
        <ele>424.60000610352</ele>
        <time>2019-09-19T12:35:50.000Z</time>
      </trkpt>
      <trkpt lat="45.37797" lon="4.20941">
        <ele>425</ele>
        <time>2019-09-19T12:36:00.000Z</time>
      </trkpt>
      <trkpt lat="45.37785" lon="4.20864">
        <ele>427</ele>
        <time>2019-09-19T12:36:09.000Z</time>
      </trkpt>
      <trkpt lat="45.37778" lon="4.20832">
        <ele>426</ele>
        <time>2019-09-19T12:36:13.000Z</time>
      </trkpt>
      <trkpt lat="45.37771" lon="4.2075">
        <ele>424.60000610352</ele>
        <time>2019-09-19T12:36:23.000Z</time>
      </trkpt>
      <trkpt lat="45.37763" lon="4.20665">
        <ele>422.20001220703</ele>
        <time>2019-09-19T12:36:33.000Z</time>
      </trkpt>
      <trkpt lat="45.37757" lon="4.20611">
        <ele>424.60000610352</ele>
        <time>2019-09-19T12:36:40.000Z</time>
      </trkpt>
      <trkpt lat="45.37738" lon="4.20536">
        <ele>425</ele>
        <time>2019-09-19T12:36:51.000Z</time>
      </trkpt>
      <trkpt lat="45.37736" lon="4.20529">
        <ele>425</ele>
        <time>2019-09-19T12:36:52.000Z</time>
      </trkpt>
      <trkpt lat="45.37729" lon="4.20499">
        <ele>425.20001220703</ele>
        <time>2019-09-19T12:36:56.000Z</time>
      </trkpt>
      <trkpt lat="45.37715" lon="4.20475">
        <ele>424.20001220703</ele>
        <time>2019-09-19T12:37:00.000Z</time>
      </trkpt>
      <trkpt lat="45.37697" lon="4.20449">
        <ele>425</ele>
        <time>2019-09-19T12:37:05.000Z</time>
      </trkpt>
      <trkpt lat="45.37688" lon="4.20425">
        <ele>424.79998779297</ele>
        <time>2019-09-19T12:37:10.000Z</time>
      </trkpt>
      <trkpt lat="45.37667" lon="4.20355">
        <ele>424.79998779297</ele>
        <time>2019-09-19T12:37:21.000Z</time>
      </trkpt>
      <trkpt lat="45.37652" lon="4.20306">
        <ele>423.79998779297</ele>
        <time>2019-09-19T12:37:28.000Z</time>
      </trkpt>
      <trkpt lat="45.3763" lon="4.2024">
        <ele>422.20001220703</ele>
        <time>2019-09-19T12:37:38.000Z</time>
      </trkpt>
      <trkpt lat="45.37598" lon="4.20238">
        <ele>423.20001220703</ele>
        <time>2019-09-19T12:37:49.000Z</time>
      </trkpt>
      <trkpt lat="45.37543" lon="4.20247">
        <ele>424.39999389648</ele>
        <time>2019-09-19T12:38:14.000Z</time>
      </trkpt>
      <trkpt lat="45.37488" lon="4.20266">
        <ele>427.60000610352</ele>
        <time>2019-09-19T12:38:35.000Z</time>
      </trkpt>
      <trkpt lat="45.37441" lon="4.20276">
        <ele>429.79998779297</ele>
        <time>2019-09-19T12:38:49.000Z</time>
      </trkpt>
      <trkpt lat="45.3742" lon="4.20205">
        <ele>429.60000610352</ele>
        <time>2019-09-19T12:39:04.000Z</time>
      </trkpt>
      <trkpt lat="45.37407" lon="4.20173">
        <ele>429.60000610352</ele>
        <time>2019-09-19T12:39:11.000Z</time>
      </trkpt>
      <trkpt lat="45.37397" lon="4.2015">
        <ele>429.79998779297</ele>
        <time>2019-09-19T12:39:15.000Z</time>
      </trkpt>
      <trkpt lat="45.37389" lon="4.20133">
        <ele>430</ele>
        <time>2019-09-19T12:39:18.000Z</time>
      </trkpt>
      <trkpt lat="45.3738" lon="4.20112">
        <ele>430</ele>
        <time>2019-09-19T12:39:22.000Z</time>
      </trkpt>
      <trkpt lat="45.37353" lon="4.20057">
        <ele>429.39999389648</ele>
        <time>2019-09-19T12:39:32.000Z</time>
      </trkpt>
      <trkpt lat="45.3732" lon="4.19993">
        <ele>429</ele>
        <time>2019-09-19T12:39:42.000Z</time>
      </trkpt>
      <trkpt lat="45.37281" lon="4.19944">
        <ele>429.20001220703</ele>
        <time>2019-09-19T12:39:51.000Z</time>
      </trkpt>
      <trkpt lat="45.37254" lon="4.19957">
        <ele>429.60000610352</ele>
        <time>2019-09-19T12:39:56.000Z</time>
      </trkpt>
      <trkpt lat="45.3724" lon="4.19963">
        <ele>430</ele>
        <time>2019-09-19T12:39:59.000Z</time>
      </trkpt>
      <trkpt lat="45.37225" lon="4.1996">
        <ele>430</ele>
        <time>2019-09-19T12:40:02.000Z</time>
      </trkpt>
      <trkpt lat="45.37192" lon="4.19994">
        <ele>432.20001220703</ele>
        <time>2019-09-19T12:40:11.000Z</time>
      </trkpt>
      <trkpt lat="45.37181" lon="4.20024">
        <ele>433.79998779297</ele>
        <time>2019-09-19T12:40:16.000Z</time>
      </trkpt>
      <trkpt lat="45.37153" lon="4.20033">
        <ele>435.79998779297</ele>
        <time>2019-09-19T12:40:23.000Z</time>
      </trkpt>
      <trkpt lat="45.37144" lon="4.20034">
        <ele>436.39999389648</ele>
        <time>2019-09-19T12:40:26.000Z</time>
      </trkpt>
      <trkpt lat="45.37132" lon="4.20034">
        <ele>437</ele>
        <time>2019-09-19T12:40:32.000Z</time>
      </trkpt>
      <trkpt lat="45.3714" lon="4.20038">
        <ele>436.60000610352</ele>
        <time>2019-09-19T12:40:37.000Z</time>
      </trkpt>
      <trkpt lat="45.37169" lon="4.2004">
        <ele>434.79998779297</ele>
        <time>2019-09-19T12:40:43.000Z</time>
      </trkpt>
      <trkpt lat="45.37168" lon="4.20067">
        <ele>435.20001220703</ele>
        <time>2019-09-19T12:40:47.000Z</time>
      </trkpt>
      <trkpt lat="45.37167" lon="4.2008">
        <ele>435.60000610352</ele>
        <time>2019-09-19T12:40:49.000Z</time>
      </trkpt>
      <trkpt lat="45.37164" lon="4.20099">
        <ele>436.39999389648</ele>
        <time>2019-09-19T12:40:52.000Z</time>
      </trkpt>
      <trkpt lat="45.37157" lon="4.20122">
        <ele>437.39999389648</ele>
        <time>2019-09-19T12:40:56.000Z</time>
      </trkpt>
      <trkpt lat="45.3712" lon="4.20181">
        <ele>438.79998779297</ele>
        <time>2019-09-19T12:41:11.000Z</time>
      </trkpt>
      <trkpt lat="45.37106" lon="4.20196">
        <ele>439.20001220703</ele>
        <time>2019-09-19T12:41:18.000Z</time>
      </trkpt>
      <trkpt lat="45.37093" lon="4.2027">
        <ele>439.39999389648</ele>
        <time>2019-09-19T12:41:33.000Z</time>
      </trkpt>
      <trkpt lat="45.37092" lon="4.20288">
        <ele>439.60000610352</ele>
        <time>2019-09-19T12:41:36.000Z</time>
      </trkpt>
      <trkpt lat="45.37094" lon="4.20315">
        <ele>440.20001220703</ele>
        <time>2019-09-19T12:41:40.000Z</time>
      </trkpt>
      <trkpt lat="45.37099" lon="4.2034">
        <ele>440.60000610352</ele>
        <time>2019-09-19T12:41:44.000Z</time>
      </trkpt>
      <trkpt lat="45.37077" lon="4.20359">
        <ele>441.79998779297</ele>
        <time>2019-09-19T12:41:50.000Z</time>
      </trkpt>
      <trkpt lat="45.37052" lon="4.20369">
        <ele>443</ele>
        <time>2019-09-19T12:41:56.000Z</time>
      </trkpt>
      <trkpt lat="45.36996" lon="4.20385">
        <ele>444.79998779297</ele>
        <time>2019-09-19T12:42:10.000Z</time>
      </trkpt>
      <trkpt lat="45.36954" lon="4.204">
        <ele>446.79998779297</ele>
        <time>2019-09-19T12:42:23.000Z</time>
      </trkpt>
      <trkpt lat="45.36966" lon="4.20423">
        <ele>447.20001220703</ele>
        <time>2019-09-19T12:42:28.000Z</time>
      </trkpt>
      <trkpt lat="45.36974" lon="4.20432">
        <ele>447.20001220703</ele>
        <time>2019-09-19T12:42:30.000Z</time>
      </trkpt>
      <trkpt lat="45.37005" lon="4.20499">
        <ele>446.79998779297</ele>
        <time>2019-09-19T12:42:41.000Z</time>
      </trkpt>
      <trkpt lat="45.37035" lon="4.20564">
        <ele>445.20001220703</ele>
        <time>2019-09-19T12:42:51.000Z</time>
      </trkpt>
      <trkpt lat="45.37057" lon="4.20616">
        <ele>444</ele>
        <time>2019-09-19T12:43:00.000Z</time>
      </trkpt>
      <trkpt lat="45.37049" lon="4.20654">
        <ele>445.60000610352</ele>
        <time>2019-09-19T12:43:07.000Z</time>
      </trkpt>
      <trkpt lat="45.37023" lon="4.20707">
        <ele>448.39999389648</ele>
        <time>2019-09-19T12:43:18.000Z</time>
      </trkpt>
      <trkpt lat="45.36989" lon="4.20714">
        <ele>449.79998779297</ele>
        <time>2019-09-19T12:43:25.000Z</time>
      </trkpt>
      <trkpt lat="45.36982" lon="4.20721">
        <ele>450.20001220703</ele>
        <time>2019-09-19T12:43:27.000Z</time>
      </trkpt>
      <trkpt lat="45.36961" lon="4.20745">
        <ele>451.39999389648</ele>
        <time>2019-09-19T12:43:33.000Z</time>
      </trkpt>
      <trkpt lat="45.36939" lon="4.20758">
        <ele>452.60000610352</ele>
        <time>2019-09-19T12:43:38.000Z</time>
      </trkpt>
      <trkpt lat="45.3692" lon="4.20776">
        <ele>452.60000610352</ele>
        <time>2019-09-19T12:43:48.000Z</time>
      </trkpt>
      <trkpt lat="45.36865" lon="4.20798">
        <ele>454.79998779297</ele>
        <time>2019-09-19T12:44:03.000Z</time>
      </trkpt>
      <trkpt lat="45.36812" lon="4.20818">
        <ele>457.79998779297</ele>
        <time>2019-09-19T12:44:20.000Z</time>
      </trkpt>
      <trkpt lat="45.36758" lon="4.2084">
        <ele>460.60000610352</ele>
        <time>2019-09-19T12:44:36.000Z</time>
      </trkpt>
      <trkpt lat="45.36706" lon="4.20872">
        <ele>461.20001220703</ele>
        <time>2019-09-19T12:44:52.000Z</time>
      </trkpt>
      <trkpt lat="45.3666" lon="4.20914">
        <ele>465.79998779297</ele>
        <time>2019-09-19T12:45:08.000Z</time>
      </trkpt>
      <trkpt lat="45.36606" lon="4.20921">
        <ele>468.79998779297</ele>
        <time>2019-09-19T12:45:26.000Z</time>
      </trkpt>
      <trkpt lat="45.3655" lon="4.20918">
        <ele>470.20001220703</ele>
        <time>2019-09-19T12:45:42.000Z</time>
      </trkpt>
      <trkpt lat="45.36494" lon="4.20927">
        <ele>474.79998779297</ele>
        <time>2019-09-19T12:45:57.000Z</time>
      </trkpt>
      <trkpt lat="45.36439" lon="4.20937">
        <ele>477.20001220703</ele>
        <time>2019-09-19T12:46:12.000Z</time>
      </trkpt>
      <trkpt lat="45.36385" lon="4.20937">
        <ele>480.39999389648</ele>
        <time>2019-09-19T12:46:28.000Z</time>
      </trkpt>
      <trkpt lat="45.36335" lon="4.20912">
        <ele>482.39999389648</ele>
        <time>2019-09-19T12:46:46.000Z</time>
      </trkpt>
      <trkpt lat="45.36291" lon="4.20867">
        <ele>485.20001220703</ele>
        <time>2019-09-19T12:47:02.000Z</time>
      </trkpt>
      <trkpt lat="45.36246" lon="4.20817">
        <ele>489</ele>
        <time>2019-09-19T12:47:18.000Z</time>
      </trkpt>
      <trkpt lat="45.36198" lon="4.20773">
        <ele>491.60000610352</ele>
        <time>2019-09-19T12:47:33.000Z</time>
      </trkpt>
      <trkpt lat="45.36174" lon="4.20757">
        <ele>490.79998779297</ele>
        <time>2019-09-19T12:47:39.000Z</time>
      </trkpt>
      <trkpt lat="45.36157" lon="4.20747">
        <ele>490.20001220703</ele>
        <time>2019-09-19T12:47:43.000Z</time>
      </trkpt>
      <trkpt lat="45.36146" lon="4.20734">
        <ele>489.60000610352</ele>
        <time>2019-09-19T12:47:46.000Z</time>
      </trkpt>
      <trkpt lat="45.36118" lon="4.20671">
        <ele>487.39999389648</ele>
        <time>2019-09-19T12:47:55.000Z</time>
      </trkpt>
      <trkpt lat="45.36116" lon="4.20618">
        <ele>485</ele>
        <time>2019-09-19T12:48:01.000Z</time>
      </trkpt>
      <trkpt lat="45.36094" lon="4.20594">
        <ele>486</ele>
        <time>2019-09-19T12:48:08.000Z</time>
      </trkpt>
      <trkpt lat="45.36048" lon="4.20547">
        <ele>488.79998779297</ele>
        <time>2019-09-19T12:48:26.000Z</time>
      </trkpt>
      <trkpt lat="45.36027" lon="4.20477">
        <ele>496</ele>
        <time>2019-09-19T12:48:44.000Z</time>
      </trkpt>
      <trkpt lat="45.36033" lon="4.204">
        <ele>500.60000610352</ele>
        <time>2019-09-19T12:49:05.000Z</time>
      </trkpt>
      <trkpt lat="45.36053" lon="4.20327">
        <ele>502</ele>
        <time>2019-09-19T12:49:25.000Z</time>
      </trkpt>
      <trkpt lat="45.36073" lon="4.20253">
        <ele>505.39999389648</ele>
        <time>2019-09-19T12:49:45.000Z</time>
      </trkpt>
      <trkpt lat="45.3608" lon="4.20179">
        <ele>504.39999389648</ele>
        <time>2019-09-19T12:50:06.000Z</time>
      </trkpt>
      <trkpt lat="45.3604" lon="4.20125">
        <ele>506.79998779297</ele>
        <time>2019-09-19T12:50:30.000Z</time>
      </trkpt>
      <trkpt lat="45.3599" lon="4.20092">
        <ele>512</ele>
        <time>2019-09-19T12:50:54.000Z</time>
      </trkpt>
      <trkpt lat="45.35984" lon="4.2009">
        <ele>513.40002441406</ele>
        <time>2019-09-19T12:50:57.000Z</time>
      </trkpt>
      <trkpt lat="45.35985" lon="4.20117">
        <ele>520.20001220703</ele>
        <time>2019-09-19T12:51:21.000Z</time>
      </trkpt>
      <trkpt lat="45.36017" lon="4.20172">
        <ele>523.20001220703</ele>
        <time>2019-09-19T12:52:23.000Z</time>
      </trkpt>
      <trkpt lat="45.36015" lon="4.2024">
        <ele>525.40002441406</ele>
        <time>2019-09-19T12:52:55.000Z</time>
      </trkpt>
      <trkpt lat="45.36014" lon="4.2024">
        <ele>525.79998779297</ele>
        <time>2019-09-19T12:52:56.000Z</time>
      </trkpt>
      <trkpt lat="45.36006" lon="4.20247">
        <ele>528.59997558594</ele>
        <time>2019-09-19T12:53:02.000Z</time>
      </trkpt>
      <trkpt lat="45.35978" lon="4.20279">
        <ele>541</ele>
        <time>2019-09-19T12:53:25.000Z</time>
      </trkpt>
      <trkpt lat="45.35973" lon="4.20284">
        <ele>542.59997558594</ele>
        <time>2019-09-19T12:53:29.000Z</time>
      </trkpt>
      <trkpt lat="45.35927" lon="4.20325">
        <ele>552</ele>
        <time>2019-09-19T12:54:03.000Z</time>
      </trkpt>
      <trkpt lat="45.35909" lon="4.20338">
        <ele>556</ele>
        <time>2019-09-19T12:54:15.000Z</time>
      </trkpt>
      <trkpt lat="45.35882" lon="4.20358">
        <ele>561.20001220703</ele>
        <time>2019-09-19T12:54:33.000Z</time>
      </trkpt>
      <trkpt lat="45.35868" lon="4.20373">
        <ele>564.79998779297</ele>
        <time>2019-09-19T12:54:45.000Z</time>
      </trkpt>
      <trkpt lat="45.35866" lon="4.20379">
        <ele>564.59997558594</ele>
        <time>2019-09-19T12:54:49.000Z</time>
      </trkpt>
      <trkpt lat="45.3586" lon="4.20399">
        <ele>564.20001220703</ele>
        <time>2019-09-19T12:54:59.000Z</time>
      </trkpt>
      <trkpt lat="45.35854" lon="4.20412">
        <ele>564</ele>
        <time>2019-09-19T12:55:06.000Z</time>
      </trkpt>
      <trkpt lat="45.35835" lon="4.20475">
        <ele>567.40002441406</ele>
        <time>2019-09-19T12:55:38.000Z</time>
      </trkpt>
      <trkpt lat="45.3583" lon="4.20489">
        <ele>569</ele>
        <time>2019-09-19T12:55:45.000Z</time>
      </trkpt>
      <trkpt lat="45.35828" lon="4.20495">
        <ele>569.40002441406</ele>
        <time>2019-09-19T12:55:49.000Z</time>
      </trkpt>
      <trkpt lat="45.35828" lon="4.20505">
        <ele>569</ele>
        <time>2019-09-19T12:55:55.000Z</time>
      </trkpt>
      <trkpt lat="45.35801" lon="4.20556">
        <ele>577.40002441406</ele>
        <time>2019-09-19T12:56:26.000Z</time>
      </trkpt>
      <trkpt lat="45.35758" lon="4.20587">
        <ele>588.20001220703</ele>
        <time>2019-09-19T12:56:56.000Z</time>
      </trkpt>
      <trkpt lat="45.35719" lon="4.20638">
        <ele>593.40002441406</ele>
        <time>2019-09-19T12:57:29.000Z</time>
      </trkpt>
      <trkpt lat="45.35696" lon="4.20708">
        <ele>595</ele>
        <time>2019-09-19T12:58:00.000Z</time>
      </trkpt>
      <trkpt lat="45.35671" lon="4.20779">
        <ele>598.20001220703</ele>
        <time>2019-09-19T12:58:16.000Z</time>
      </trkpt>
      <trkpt lat="45.35668" lon="4.20856">
        <ele>602.79998779297</ele>
        <time>2019-09-19T12:58:35.000Z</time>
      </trkpt>
      <trkpt lat="45.35672" lon="4.20933">
        <ele>607.20001220703</ele>
        <time>2019-09-19T12:58:56.000Z</time>
      </trkpt>
      <trkpt lat="45.35637" lon="4.2099">
        <ele>611.79998779297</ele>
        <time>2019-09-19T12:59:24.000Z</time>
      </trkpt>
      <trkpt lat="45.35591" lon="4.21033">
        <ele>617.79998779297</ele>
        <time>2019-09-19T12:59:53.000Z</time>
      </trkpt>
      <trkpt lat="45.35561" lon="4.21098">
        <ele>622</ele>
        <time>2019-09-19T13:00:13.000Z</time>
      </trkpt>
      <trkpt lat="45.35563" lon="4.21148">
        <ele>622</ele>
        <time>2019-09-19T13:00:22.000Z</time>
      </trkpt>
      <trkpt lat="45.35577" lon="4.2116">
        <ele>622.20001220703</ele>
        <time>2019-09-19T13:00:28.000Z</time>
      </trkpt>
      <trkpt lat="45.35629" lon="4.21182">
        <ele>623.20001220703</ele>
        <time>2019-09-19T13:00:49.000Z</time>
      </trkpt>
      <trkpt lat="45.35671" lon="4.21233">
        <ele>624.79998779297</ele>
        <time>2019-09-19T13:01:09.000Z</time>
      </trkpt>
      <trkpt lat="45.35698" lon="4.21301">
        <ele>628</ele>
        <time>2019-09-19T13:01:30.000Z</time>
      </trkpt>
      <trkpt lat="45.35724" lon="4.2137">
        <ele>633.59997558594</ele>
        <time>2019-09-19T13:01:55.000Z</time>
      </trkpt>
      <trkpt lat="45.35764" lon="4.21425">
        <ele>638.20001220703</ele>
        <time>2019-09-19T13:02:23.000Z</time>
      </trkpt>
      <trkpt lat="45.3581" lon="4.21461">
        <ele>641.59997558594</ele>
        <time>2019-09-19T13:02:49.000Z</time>
      </trkpt>
      <trkpt lat="45.35864" lon="4.21482">
        <ele>641</ele>
        <time>2019-09-19T13:03:11.000Z</time>
      </trkpt>
      <trkpt lat="45.3591" lon="4.21523">
        <ele>644.59997558594</ele>
        <time>2019-09-19T13:03:31.000Z</time>
      </trkpt>
      <trkpt lat="45.35949" lon="4.21577">
        <ele>649.79998779297</ele>
        <time>2019-09-19T13:03:54.000Z</time>
      </trkpt>
      <trkpt lat="45.35991" lon="4.21624">
        <ele>655.40002441406</ele>
        <time>2019-09-19T13:04:15.000Z</time>
      </trkpt>
      <trkpt lat="45.36045" lon="4.21649">
        <ele>658.40002441406</ele>
        <time>2019-09-19T13:04:37.000Z</time>
      </trkpt>
      <trkpt lat="45.36094" lon="4.21683">
        <ele>659.20001220703</ele>
        <time>2019-09-19T13:04:59.000Z</time>
      </trkpt>
      <trkpt lat="45.36139" lon="4.21725">
        <ele>662.59997558594</ele>
        <time>2019-09-19T13:05:24.000Z</time>
      </trkpt>
      <trkpt lat="45.36181" lon="4.21773">
        <ele>667.20001220703</ele>
        <time>2019-09-19T13:05:45.000Z</time>
      </trkpt>
      <trkpt lat="45.36215" lon="4.21802">
        <ele>666.59997558594</ele>
        <time>2019-09-19T13:05:58.000Z</time>
      </trkpt>
      <trkpt lat="45.36212" lon="4.21821">
        <ele>668.40002441406</ele>
        <time>2019-09-19T13:06:03.000Z</time>
      </trkpt>
      <trkpt lat="45.36183" lon="4.21883">
        <ele>676.40002441406</ele>
        <time>2019-09-19T13:06:26.000Z</time>
      </trkpt>
      <trkpt lat="45.3613" lon="4.21904">
        <ele>683</ele>
        <time>2019-09-19T13:06:49.000Z</time>
      </trkpt>
      <trkpt lat="45.36082" lon="4.21947">
        <ele>685.79998779297</ele>
        <time>2019-09-19T13:07:10.000Z</time>
      </trkpt>
      <trkpt lat="45.36065" lon="4.21961">
        <ele>687.20001220703</ele>
        <time>2019-09-19T13:07:15.000Z</time>
      </trkpt>
      <trkpt lat="45.36032" lon="4.21978">
        <ele>687.59997558594</ele>
        <time>2019-09-19T13:07:23.000Z</time>
      </trkpt>
      <trkpt lat="45.36021" lon="4.21988">
        <ele>688</ele>
        <time>2019-09-19T13:07:26.000Z</time>
      </trkpt>
      <trkpt lat="45.35986" lon="4.22047">
        <ele>689.59997558594</ele>
        <time>2019-09-19T13:07:38.000Z</time>
      </trkpt>
      <trkpt lat="45.35953" lon="4.22109">
        <ele>690.20001220703</ele>
        <time>2019-09-19T13:07:49.000Z</time>
      </trkpt>
      <trkpt lat="45.35946" lon="4.22126">
        <ele>690.59997558594</ele>
        <time>2019-09-19T13:07:52.000Z</time>
      </trkpt>
      <trkpt lat="45.35932" lon="4.22155">
        <ele>691.20001220703</ele>
        <time>2019-09-19T13:07:58.000Z</time>
      </trkpt>
      <trkpt lat="45.35878" lon="4.22161">
        <ele>688.20001220703</ele>
        <time>2019-09-19T13:08:11.000Z</time>
      </trkpt>
      <trkpt lat="45.35847" lon="4.22164">
        <ele>687.79998779297</ele>
        <time>2019-09-19T13:08:18.000Z</time>
      </trkpt>
      <trkpt lat="45.35819" lon="4.22163">
        <ele>687.59997558594</ele>
        <time>2019-09-19T13:08:24.000Z</time>
      </trkpt>
      <trkpt lat="45.35791" lon="4.2216">
        <ele>687.59997558594</ele>
        <time>2019-09-19T13:08:30.000Z</time>
      </trkpt>
      <trkpt lat="45.35765" lon="4.22155">
        <ele>687.59997558594</ele>
        <time>2019-09-19T13:08:35.000Z</time>
      </trkpt>
      <trkpt lat="45.35731" lon="4.22151">
        <ele>687.40002441406</ele>
        <time>2019-09-19T13:08:41.000Z</time>
      </trkpt>
      <trkpt lat="45.35712" lon="4.22155">
        <ele>687.40002441406</ele>
        <time>2019-09-19T13:08:44.000Z</time>
      </trkpt>
      <trkpt lat="45.3567" lon="4.22172">
        <ele>686.20001220703</ele>
        <time>2019-09-19T13:08:50.000Z</time>
      </trkpt>
      <trkpt lat="45.35656" lon="4.22179">
        <ele>685.79998779297</ele>
        <time>2019-09-19T13:08:52.000Z</time>
      </trkpt>
      <trkpt lat="45.35628" lon="4.22185">
        <ele>684.20001220703</ele>
        <time>2019-09-19T13:08:56.000Z</time>
      </trkpt>
      <trkpt lat="45.3558" lon="4.22215">
        <ele>680.79998779297</ele>
        <time>2019-09-19T13:09:03.000Z</time>
      </trkpt>
      <trkpt lat="45.35562" lon="4.22239">
        <ele>680.59997558594</ele>
        <time>2019-09-19T13:09:06.000Z</time>
      </trkpt>
      <trkpt lat="45.35547" lon="4.22264">
        <ele>681.20001220703</ele>
        <time>2019-09-19T13:09:09.000Z</time>
      </trkpt>
      <trkpt lat="45.35513" lon="4.22305">
        <ele>680.79998779297</ele>
        <time>2019-09-19T13:09:15.000Z</time>
      </trkpt>
      <trkpt lat="45.35481" lon="4.22307">
        <ele>678.79998779297</ele>
        <time>2019-09-19T13:09:20.000Z</time>
      </trkpt>
      <trkpt lat="45.35442" lon="4.223">
        <ele>678.59997558594</ele>
        <time>2019-09-19T13:09:31.000Z</time>
      </trkpt>
      <trkpt lat="45.35387" lon="4.22299">
        <ele>681.20001220703</ele>
        <time>2019-09-19T13:09:53.000Z</time>
      </trkpt>
      <trkpt lat="45.35375" lon="4.223">
        <ele>682</ele>
        <time>2019-09-19T13:09:59.000Z</time>
      </trkpt>
      <trkpt lat="45.35368" lon="4.22301">
        <ele>682.40002441406</ele>
        <time>2019-09-19T13:10:03.000Z</time>
      </trkpt>
      <trkpt lat="45.35362" lon="4.223">
        <ele>682.79998779297</ele>
        <time>2019-09-19T13:10:07.000Z</time>
      </trkpt>
      <trkpt lat="45.35308" lon="4.22305">
        <ele>687</ele>
        <time>2019-09-19T13:10:34.000Z</time>
      </trkpt>
      <trkpt lat="45.35253" lon="4.22302">
        <ele>690.79998779297</ele>
        <time>2019-09-19T13:10:57.000Z</time>
      </trkpt>
      <trkpt lat="45.35198" lon="4.223">
        <ele>693.40002441406</ele>
        <time>2019-09-19T13:11:14.000Z</time>
      </trkpt>
      <trkpt lat="45.35179" lon="4.22302">
        <ele>693.79998779297</ele>
        <time>2019-09-19T13:11:19.000Z</time>
      </trkpt>
      <trkpt lat="45.35166" lon="4.223">
        <ele>694.20001220703</ele>
        <time>2019-09-19T13:11:22.000Z</time>
      </trkpt>
      <trkpt lat="45.35148" lon="4.22294">
        <ele>694.59997558594</ele>
        <time>2019-09-19T13:11:26.000Z</time>
      </trkpt>
      <trkpt lat="45.35134" lon="4.22285">
        <ele>695</ele>
        <time>2019-09-19T13:11:29.000Z</time>
      </trkpt>
      <trkpt lat="45.35076" lon="4.22263">
        <ele>692.59997558594</ele>
        <time>2019-09-19T13:11:39.000Z</time>
      </trkpt>
      <trkpt lat="45.3507" lon="4.2226">
        <ele>692.40002441406</ele>
        <time>2019-09-19T13:11:40.000Z</time>
      </trkpt>
      <trkpt lat="45.35017" lon="4.22243">
        <ele>689.59997558594</ele>
        <time>2019-09-19T13:11:48.000Z</time>
      </trkpt>
      <trkpt lat="45.3501" lon="4.2224">
        <ele>689.20001220703</ele>
        <time>2019-09-19T13:11:49.000Z</time>
      </trkpt>
      <trkpt lat="45.3498" lon="4.22235">
        <ele>688.20001220703</ele>
        <time>2019-09-19T13:11:55.000Z</time>
      </trkpt>
      <trkpt lat="45.34976" lon="4.22233">
        <ele>688</ele>
        <time>2019-09-19T13:11:56.000Z</time>
      </trkpt>
      <trkpt lat="45.34955" lon="4.2222">
        <ele>686.59997558594</ele>
        <time>2019-09-19T13:12:02.000Z</time>
      </trkpt>
      <trkpt lat="45.34928" lon="4.22226">
        <ele>685.20001220703</ele>
        <time>2019-09-19T13:12:06.000Z</time>
      </trkpt>
      <trkpt lat="45.34899" lon="4.22241">
        <ele>685</ele>
        <time>2019-09-19T13:12:10.000Z</time>
      </trkpt>
      <trkpt lat="45.34876" lon="4.22256">
        <ele>685.20001220703</ele>
        <time>2019-09-19T13:12:14.000Z</time>
      </trkpt>
      <trkpt lat="45.34821" lon="4.2227">
        <ele>683</ele>
        <time>2019-09-19T13:12:26.000Z</time>
      </trkpt>
      <trkpt lat="45.34767" lon="4.22282">
        <ele>683.79998779297</ele>
        <time>2019-09-19T13:12:48.000Z</time>
      </trkpt>
      <trkpt lat="45.34713" lon="4.22299">
        <ele>687.20001220703</ele>
        <time>2019-09-19T13:13:17.000Z</time>
      </trkpt>
      <trkpt lat="45.34659" lon="4.22311">
        <ele>691.59997558594</ele>
        <time>2019-09-19T13:13:49.000Z</time>
      </trkpt>
      <trkpt lat="45.3465" lon="4.22314">
        <ele>692.40002441406</ele>
        <time>2019-09-19T13:13:55.000Z</time>
      </trkpt>
      <trkpt lat="45.34596" lon="4.22327">
        <ele>697.79998779297</ele>
        <time>2019-09-19T13:14:26.000Z</time>
      </trkpt>
      <trkpt lat="45.34543" lon="4.22346">
        <ele>702.20001220703</ele>
        <time>2019-09-19T13:14:54.000Z</time>
      </trkpt>
      <trkpt lat="45.34489" lon="4.22366">
        <ele>704.79998779297</ele>
        <time>2019-09-19T13:15:21.000Z</time>
      </trkpt>
      <trkpt lat="45.34436" lon="4.22384">
        <ele>706.20001220703</ele>
        <time>2019-09-19T13:15:46.000Z</time>
      </trkpt>
      <trkpt lat="45.34382" lon="4.22404">
        <ele>707.40002441406</ele>
        <time>2019-09-19T13:16:12.000Z</time>
      </trkpt>
      <trkpt lat="45.3433" lon="4.22426">
        <ele>710.59997558594</ele>
        <time>2019-09-19T13:16:37.000Z</time>
      </trkpt>
      <trkpt lat="45.3432" lon="4.22425">
        <ele>711.40002441406</ele>
        <time>2019-09-19T13:16:42.000Z</time>
      </trkpt>
      <trkpt lat="45.34306" lon="4.22427">
        <ele>712.40002441406</ele>
        <time>2019-09-19T13:16:49.000Z</time>
      </trkpt>
      <trkpt lat="45.3425" lon="4.22432">
        <ele>717.40002441406</ele>
        <time>2019-09-19T13:17:15.000Z</time>
      </trkpt>
      <trkpt lat="45.34196" lon="4.22435">
        <ele>721.79998779297</ele>
        <time>2019-09-19T13:17:45.000Z</time>
      </trkpt>
      <trkpt lat="45.3414" lon="4.22441">
        <ele>727.20001220703</ele>
        <time>2019-09-19T13:18:14.000Z</time>
      </trkpt>
      <trkpt lat="45.34086" lon="4.22459">
        <ele>729.79998779297</ele>
        <time>2019-09-19T13:18:38.000Z</time>
      </trkpt>
      <trkpt lat="45.34034" lon="4.22488">
        <ele>731.59997558594</ele>
        <time>2019-09-19T13:18:58.000Z</time>
      </trkpt>
      <trkpt lat="45.33983" lon="4.22522">
        <ele>731</ele>
        <time>2019-09-19T13:19:18.000Z</time>
      </trkpt>
      <trkpt lat="45.33932" lon="4.22555">
        <ele>735.79998779297</ele>
        <time>2019-09-19T13:19:37.000Z</time>
      </trkpt>
      <trkpt lat="45.33885" lon="4.22594">
        <ele>736.79998779297</ele>
        <time>2019-09-19T13:19:56.000Z</time>
      </trkpt>
      <trkpt lat="45.33838" lon="4.22635">
        <ele>741.40002441406</ele>
        <time>2019-09-19T13:20:21.000Z</time>
      </trkpt>
      <trkpt lat="45.33796" lon="4.22685">
        <ele>741.20001220703</ele>
        <time>2019-09-19T13:20:48.000Z</time>
      </trkpt>
      <trkpt lat="45.33777" lon="4.22709">
        <ele>743.79998779297</ele>
        <time>2019-09-19T13:21:03.000Z</time>
      </trkpt>
      <trkpt lat="45.33765" lon="4.22725">
        <ele>746.20001220703</ele>
        <time>2019-09-19T13:21:12.000Z</time>
      </trkpt>
      <trkpt lat="45.33724" lon="4.22778">
        <ele>747.40002441406</ele>
        <time>2019-09-19T13:21:45.000Z</time>
      </trkpt>
      <trkpt lat="45.33708" lon="4.22796">
        <ele>748.59997558594</ele>
        <time>2019-09-19T13:21:57.000Z</time>
      </trkpt>
      <trkpt lat="45.33701" lon="4.22802">
        <ele>749.40002441406</ele>
        <time>2019-09-19T13:22:02.000Z</time>
      </trkpt>
      <trkpt lat="45.33696" lon="4.22806">
        <ele>750</ele>
        <time>2019-09-19T13:22:06.000Z</time>
      </trkpt>
      <trkpt lat="45.33644" lon="4.22829">
        <ele>755</ele>
        <time>2019-09-19T13:22:38.000Z</time>
      </trkpt>
      <trkpt lat="45.33616" lon="4.22847">
        <ele>756.79998779297</ele>
        <time>2019-09-19T13:22:55.000Z</time>
      </trkpt>
      <trkpt lat="45.33561" lon="4.22868">
        <ele>759.40002441406</ele>
        <time>2019-09-19T13:23:17.000Z</time>
      </trkpt>
      <trkpt lat="45.33507" lon="4.22891">
        <ele>761.20001220703</ele>
        <time>2019-09-19T13:23:35.000Z</time>
      </trkpt>
      <trkpt lat="45.33454" lon="4.22919">
        <ele>764.20001220703</ele>
        <time>2019-09-19T13:23:58.000Z</time>
      </trkpt>
      <trkpt lat="45.33399" lon="4.22936">
        <ele>763.79998779297</ele>
        <time>2019-09-19T13:24:13.000Z</time>
      </trkpt>
      <trkpt lat="45.33341" lon="4.22943">
        <ele>763.59997558594</ele>
        <time>2019-09-19T13:24:27.000Z</time>
      </trkpt>
      <trkpt lat="45.33285" lon="4.22947">
        <ele>763.79998779297</ele>
        <time>2019-09-19T13:24:41.000Z</time>
      </trkpt>
      <trkpt lat="45.33239" lon="4.22961">
        <ele>764.20001220703</ele>
        <time>2019-09-19T13:24:52.000Z</time>
      </trkpt>
      <trkpt lat="45.33206" lon="4.22971">
        <ele>765</ele>
        <time>2019-09-19T13:25:00.000Z</time>
      </trkpt>
      <trkpt lat="45.33178" lon="4.2298">
        <ele>766</ele>
        <time>2019-09-19T13:25:06.000Z</time>
      </trkpt>
      <trkpt lat="45.33149" lon="4.22989">
        <ele>766.20001220703</ele>
        <time>2019-09-19T13:25:12.000Z</time>
      </trkpt>
      <trkpt lat="45.33097" lon="4.23013">
        <ele>767</ele>
        <time>2019-09-19T13:25:23.000Z</time>
      </trkpt>
      <trkpt lat="45.33088" lon="4.23016">
        <ele>766.59997558594</ele>
        <time>2019-09-19T13:25:25.000Z</time>
      </trkpt>
      <trkpt lat="45.33075" lon="4.23022">
        <ele>766.20001220703</ele>
        <time>2019-09-19T13:25:28.000Z</time>
      </trkpt>
      <trkpt lat="45.33043" lon="4.2303">
        <ele>765.59997558594</ele>
        <time>2019-09-19T13:25:35.000Z</time>
      </trkpt>
      <trkpt lat="45.32991" lon="4.23015">
        <ele>771.79998779297</ele>
        <time>2019-09-19T13:25:49.000Z</time>
      </trkpt>
      <trkpt lat="45.32937" lon="4.22987">
        <ele>775.40002441406</ele>
        <time>2019-09-19T13:26:02.000Z</time>
      </trkpt>
      <trkpt lat="45.32929" lon="4.22983">
        <ele>775.40002441406</ele>
        <time>2019-09-19T13:26:04.000Z</time>
      </trkpt>
      <trkpt lat="45.32896" lon="4.2297">
        <ele>776</ele>
        <time>2019-09-19T13:26:12.000Z</time>
      </trkpt>
      <trkpt lat="45.3288" lon="4.22967">
        <ele>776.40002441406</ele>
        <time>2019-09-19T13:26:16.000Z</time>
      </trkpt>
      <trkpt lat="45.32825" lon="4.22954">
        <ele>775.59997558594</ele>
        <time>2019-09-19T13:26:27.000Z</time>
      </trkpt>
      <trkpt lat="45.32772" lon="4.22936">
        <ele>774.59997558594</ele>
        <time>2019-09-19T13:26:36.000Z</time>
      </trkpt>
      <trkpt lat="45.32719" lon="4.22923">
        <ele>774</ele>
        <time>2019-09-19T13:26:45.000Z</time>
      </trkpt>
      <trkpt lat="45.32662" lon="4.22909">
        <ele>774</ele>
        <time>2019-09-19T13:26:54.000Z</time>
      </trkpt>
      <trkpt lat="45.32605" lon="4.22895">
        <ele>774.79998779297</ele>
        <time>2019-09-19T13:27:02.000Z</time>
      </trkpt>
      <trkpt lat="45.32548" lon="4.22879">
        <ele>775.59997558594</ele>
        <time>2019-09-19T13:27:09.000Z</time>
      </trkpt>
      <trkpt lat="45.32489" lon="4.22864">
        <ele>777.20001220703</ele>
        <time>2019-09-19T13:27:16.000Z</time>
      </trkpt>
      <trkpt lat="45.3243" lon="4.22847">
        <ele>776.40002441406</ele>
        <time>2019-09-19T13:27:23.000Z</time>
      </trkpt>
      <trkpt lat="45.32372" lon="4.22831">
        <ele>773.59997558594</ele>
        <time>2019-09-19T13:27:30.000Z</time>
      </trkpt>
      <trkpt lat="45.32317" lon="4.22816">
        <ele>772.79998779297</ele>
        <time>2019-09-19T13:27:37.000Z</time>
      </trkpt>
      <trkpt lat="45.32261" lon="4.22802">
        <ele>771</ele>
        <time>2019-09-19T13:27:45.000Z</time>
      </trkpt>
      <trkpt lat="45.32243" lon="4.22793">
        <ele>770.59997558594</ele>
        <time>2019-09-19T13:27:48.000Z</time>
      </trkpt>
      <trkpt lat="45.32222" lon="4.22761">
        <ele>770.40002441406</ele>
        <time>2019-09-19T13:27:53.000Z</time>
      </trkpt>
      <trkpt lat="45.32207" lon="4.22729">
        <ele>770</ele>
        <time>2019-09-19T13:27:57.000Z</time>
      </trkpt>
      <trkpt lat="45.32185" lon="4.22709">
        <ele>770.40002441406</ele>
        <time>2019-09-19T13:28:01.000Z</time>
      </trkpt>
      <trkpt lat="45.32134" lon="4.22682">
        <ele>771.79998779297</ele>
        <time>2019-09-19T13:28:11.000Z</time>
      </trkpt>
      <trkpt lat="45.3211" lon="4.22672">
        <ele>771</ele>
        <time>2019-09-19T13:28:16.000Z</time>
      </trkpt>
      <trkpt lat="45.32054" lon="4.22679">
        <ele>770</ele>
        <time>2019-09-19T13:28:27.000Z</time>
      </trkpt>
      <trkpt lat="45.31999" lon="4.22689">
        <ele>767.59997558594</ele>
        <time>2019-09-19T13:28:37.000Z</time>
      </trkpt>
      <trkpt lat="45.31944" lon="4.22698">
        <ele>766</ele>
        <time>2019-09-19T13:28:46.000Z</time>
      </trkpt>
      <trkpt lat="45.3189" lon="4.22709">
        <ele>766</ele>
        <time>2019-09-19T13:28:54.000Z</time>
      </trkpt>
      <trkpt lat="45.3187" lon="4.22714">
        <ele>765.59997558594</ele>
        <time>2019-09-19T13:28:57.000Z</time>
      </trkpt>
      <trkpt lat="45.31832" lon="4.22732">
        <ele>763.59997558594</ele>
        <time>2019-09-19T13:29:03.000Z</time>
      </trkpt>
      <trkpt lat="45.31798" lon="4.22739">
        <ele>762.59997558594</ele>
        <time>2019-09-19T13:29:12.000Z</time>
      </trkpt>
      <trkpt lat="45.3175" lon="4.2279">
        <ele>762.40002441406</ele>
        <time>2019-09-19T13:29:20.000Z</time>
      </trkpt>
      <trkpt lat="45.31705" lon="4.22835">
        <ele>763.59997558594</ele>
        <time>2019-09-19T13:29:28.000Z</time>
      </trkpt>
      <trkpt lat="45.31657" lon="4.22884">
        <ele>765.40002441406</ele>
        <time>2019-09-19T13:29:39.000Z</time>
      </trkpt>
      <trkpt lat="45.31646" lon="4.22895">
        <ele>765.59997558594</ele>
        <time>2019-09-19T13:29:42.000Z</time>
      </trkpt>
      <trkpt lat="45.31601" lon="4.2294">
        <ele>766.59997558594</ele>
        <time>2019-09-19T13:29:55.000Z</time>
      </trkpt>
      <trkpt lat="45.31566" lon="4.22965">
        <ele>767.79998779297</ele>
        <time>2019-09-19T13:30:04.000Z</time>
      </trkpt>
      <trkpt lat="45.31521" lon="4.22933">
        <ele>767.40002441406</ele>
        <time>2019-09-19T13:30:13.000Z</time>
      </trkpt>
      <trkpt lat="45.31503" lon="4.22897">
        <ele>765.79998779297</ele>
        <time>2019-09-19T13:30:17.000Z</time>
      </trkpt>
      <trkpt lat="45.3148" lon="4.22848">
        <ele>763.40002441406</ele>
        <time>2019-09-19T13:30:23.000Z</time>
      </trkpt>
      <trkpt lat="45.31477" lon="4.2284">
        <ele>762.79998779297</ele>
        <time>2019-09-19T13:30:24.000Z</time>
      </trkpt>
      <trkpt lat="45.31441" lon="4.22864">
        <ele>763.59997558594</ele>
        <time>2019-09-19T13:30:33.000Z</time>
      </trkpt>
      <trkpt lat="45.31445" lon="4.22912">
        <ele>766</ele>
        <time>2019-09-19T13:30:40.000Z</time>
      </trkpt>
      <trkpt lat="45.31414" lon="4.2298">
        <ele>768.79998779297</ele>
        <time>2019-09-19T13:30:54.000Z</time>
      </trkpt>
      <trkpt lat="45.31396" lon="4.23054">
        <ele>772.79998779297</ele>
        <time>2019-09-19T13:31:13.000Z</time>
      </trkpt>
      <trkpt lat="45.31379" lon="4.2313">
        <ele>775</ele>
        <time>2019-09-19T13:31:32.000Z</time>
      </trkpt>
      <trkpt lat="45.31342" lon="4.23166">
        <ele>776</ele>
        <time>2019-09-19T13:31:45.000Z</time>
      </trkpt>
      <trkpt lat="45.31308" lon="4.23206">
        <ele>780.79998779297</ele>
        <time>2019-09-19T13:31:56.000Z</time>
      </trkpt>
      <trkpt lat="45.31341" lon="4.23229">
        <ele>777.20001220703</ele>
        <time>2019-09-19T13:32:05.000Z</time>
      </trkpt>
      <trkpt lat="45.31349" lon="4.23232">
        <ele>776.40002441406</ele>
        <time>2019-09-19T13:32:07.000Z</time>
      </trkpt>
      <trkpt lat="45.31365" lon="4.23248">
        <ele>774.40002441406</ele>
        <time>2019-09-19T13:32:11.000Z</time>
      </trkpt>
      <trkpt lat="45.31411" lon="4.23293">
        <ele>770.20001220703</ele>
        <time>2019-09-19T13:32:19.000Z</time>
      </trkpt>
      <trkpt lat="45.31465" lon="4.23339">
        <ele>766.59997558594</ele>
        <time>2019-09-19T13:32:26.000Z</time>
      </trkpt>
      <trkpt lat="45.31524" lon="4.23353">
        <ele>764</ele>
        <time>2019-09-19T13:32:32.000Z</time>
      </trkpt>
      <trkpt lat="45.31566" lon="4.23344">
        <ele>762.59997558594</ele>
        <time>2019-09-19T13:32:36.000Z</time>
      </trkpt>
      <trkpt lat="45.31607" lon="4.23315">
        <ele>760.40002441406</ele>
        <time>2019-09-19T13:32:40.000Z</time>
      </trkpt>
      <trkpt lat="45.31614" lon="4.23308">
        <ele>759.59997558594</ele>
        <time>2019-09-19T13:32:41.000Z</time>
      </trkpt>
      <trkpt lat="45.31621" lon="4.233">
        <ele>758.59997558594</ele>
        <time>2019-09-19T13:32:43.000Z</time>
      </trkpt>
      <trkpt lat="45.31624" lon="4.23297">
        <ele>758.40002441406</ele>
        <time>2019-09-19T13:32:45.000Z</time>
      </trkpt>
      <trkpt lat="45.31618" lon="4.23299">
        <ele>758.79998779297</ele>
        <time>2019-09-19T13:32:49.000Z</time>
      </trkpt>
      <trkpt lat="45.31615" lon="4.23301">
        <ele>759.20001220703</ele>
        <time>2019-09-19T13:32:51.000Z</time>
      </trkpt>
      <trkpt lat="45.31609" lon="4.23305">
        <ele>759.79998779297</ele>
        <time>2019-09-19T13:32:55.000Z</time>
      </trkpt>
      <trkpt lat="45.31561" lon="4.23341">
        <ele>762.59997558594</ele>
        <time>2019-09-19T13:33:11.000Z</time>
      </trkpt>
      <trkpt lat="45.31517" lon="4.23354">
        <ele>764.40002441406</ele>
        <time>2019-09-19T13:33:26.000Z</time>
      </trkpt>
      <trkpt lat="45.3153" lon="4.23366">
        <ele>763.79998779297</ele>
        <time>2019-09-19T13:33:34.000Z</time>
      </trkpt>
      <trkpt lat="45.31581" lon="4.23391">
        <ele>763.59997558594</ele>
        <time>2019-09-19T13:33:50.000Z</time>
      </trkpt>
      <trkpt lat="45.31609" lon="4.2341">
        <ele>763.79998779297</ele>
        <time>2019-09-19T13:33:58.000Z</time>
      </trkpt>
      <trkpt lat="45.31623" lon="4.23421">
        <ele>764</ele>
        <time>2019-09-19T13:34:02.000Z</time>
      </trkpt>
      <trkpt lat="45.31637" lon="4.23432">
        <ele>763.59997558594</ele>
        <time>2019-09-19T13:34:06.000Z</time>
      </trkpt>
      <trkpt lat="45.31668" lon="4.23465">
        <ele>760.79998779297</ele>
        <time>2019-09-19T13:34:14.000Z</time>
      </trkpt>
      <trkpt lat="45.3168" lon="4.23474">
        <ele>759.40002441406</ele>
        <time>2019-09-19T13:34:17.000Z</time>
      </trkpt>
      <trkpt lat="45.31695" lon="4.23481">
        <ele>757.59997558594</ele>
        <time>2019-09-19T13:34:20.000Z</time>
      </trkpt>
      <trkpt lat="45.31728" lon="4.23517">
        <ele>754.20001220703</ele>
        <time>2019-09-19T13:34:27.000Z</time>
      </trkpt>
      <trkpt lat="45.31738" lon="4.23536">
        <ele>753.40002441406</ele>
        <time>2019-09-19T13:34:30.000Z</time>
      </trkpt>
      <trkpt lat="45.31773" lon="4.23603">
        <ele>752.20001220703</ele>
        <time>2019-09-19T13:34:39.000Z</time>
      </trkpt>
      <trkpt lat="45.31811" lon="4.23665">
        <ele>749.20001220703</ele>
        <time>2019-09-19T13:34:49.000Z</time>
      </trkpt>
      <trkpt lat="45.3183" lon="4.23691">
        <ele>747.40002441406</ele>
        <time>2019-09-19T13:34:56.000Z</time>
      </trkpt>
      <trkpt lat="45.3185" lon="4.23728">
        <ele>745.20001220703</ele>
        <time>2019-09-19T13:35:08.000Z</time>
      </trkpt>
      <trkpt lat="45.31861" lon="4.23742">
        <ele>744.20001220703</ele>
        <time>2019-09-19T13:35:21.000Z</time>
      </trkpt>
      <trkpt lat="45.31871" lon="4.23754">
        <ele>743</ele>
        <time>2019-09-19T13:35:40.000Z</time>
      </trkpt>
      <trkpt lat="45.31899" lon="4.23773">
        <ele>739.20001220703</ele>
        <time>2019-09-19T13:36:05.000Z</time>
      </trkpt>
      <trkpt lat="45.31943" lon="4.23822">
        <ele>737.59997558594</ele>
        <time>2019-09-19T13:36:21.000Z</time>
      </trkpt>
      <trkpt lat="45.31958" lon="4.23839">
        <ele>737.40002441406</ele>
        <time>2019-09-19T13:36:26.000Z</time>
      </trkpt>
      <trkpt lat="45.32007" lon="4.23882">
        <ele>732.40002441406</ele>
        <time>2019-09-19T13:36:41.000Z</time>
      </trkpt>
      <trkpt lat="45.32022" lon="4.23902">
        <ele>729.59997558594</ele>
        <time>2019-09-19T13:36:45.000Z</time>
      </trkpt>
      <trkpt lat="45.32029" lon="4.23914">
        <ele>728.40002441406</ele>
        <time>2019-09-19T13:36:47.000Z</time>
      </trkpt>
      <trkpt lat="45.32064" lon="4.23969">
        <ele>722.79998779297</ele>
        <time>2019-09-19T13:36:57.000Z</time>
      </trkpt>
      <trkpt lat="45.32071" lon="4.23981">
        <ele>722</ele>
        <time>2019-09-19T13:36:59.000Z</time>
      </trkpt>
      <trkpt lat="45.32081" lon="4.24004">
        <ele>721</ele>
        <time>2019-09-19T13:37:03.000Z</time>
      </trkpt>
      <trkpt lat="45.32101" lon="4.24021">
        <ele>718</ele>
        <time>2019-09-19T13:37:10.000Z</time>
      </trkpt>
      <trkpt lat="45.32105" lon="4.24025">
        <ele>717.40002441406</ele>
        <time>2019-09-19T13:37:11.000Z</time>
      </trkpt>
      <trkpt lat="45.32122" lon="4.24037">
        <ele>715</ele>
        <time>2019-09-19T13:37:15.000Z</time>
      </trkpt>
      <trkpt lat="45.32135" lon="4.24044">
        <ele>713.59997558594</ele>
        <time>2019-09-19T13:37:18.000Z</time>
      </trkpt>
      <trkpt lat="45.3217" lon="4.24091">
        <ele>713.79998779297</ele>
        <time>2019-09-19T13:37:35.000Z</time>
      </trkpt>
      <trkpt lat="45.32203" lon="4.2411">
        <ele>712.59997558594</ele>
        <time>2019-09-19T13:37:48.000Z</time>
      </trkpt>
      <trkpt lat="45.3222" lon="4.24116">
        <ele>712.40002441406</ele>
        <time>2019-09-19T13:37:52.000Z</time>
      </trkpt>
      <trkpt lat="45.32255" lon="4.24115">
        <ele>711</ele>
        <time>2019-09-19T13:37:59.000Z</time>
      </trkpt>
      <trkpt lat="45.3231" lon="4.24115">
        <ele>708.20001220703</ele>
        <time>2019-09-19T13:38:09.000Z</time>
      </trkpt>
      <trkpt lat="45.32367" lon="4.24125">
        <ele>705</ele>
        <time>2019-09-19T13:38:18.000Z</time>
      </trkpt>
      <trkpt lat="45.32395" lon="4.24136">
        <ele>703.20001220703</ele>
        <time>2019-09-19T13:38:23.000Z</time>
      </trkpt>
      <trkpt lat="45.32444" lon="4.24157">
        <ele>700</ele>
        <time>2019-09-19T13:38:33.000Z</time>
      </trkpt>
      <trkpt lat="45.32503" lon="4.24173">
        <ele>698</ele>
        <time>2019-09-19T13:38:43.000Z</time>
      </trkpt>
      <trkpt lat="45.32557" lon="4.24191">
        <ele>697.79998779297</ele>
        <time>2019-09-19T13:38:52.000Z</time>
      </trkpt>
      <trkpt lat="45.32583" lon="4.24187">
        <ele>695.79998779297</ele>
        <time>2019-09-19T13:38:56.000Z</time>
      </trkpt>
      <trkpt lat="45.32607" lon="4.24181">
        <ele>693.59997558594</ele>
        <time>2019-09-19T13:39:00.000Z</time>
      </trkpt>
      <trkpt lat="45.32629" lon="4.24177">
        <ele>691.59997558594</ele>
        <time>2019-09-19T13:39:06.000Z</time>
      </trkpt>
      <trkpt lat="45.32686" lon="4.24179">
        <ele>683.79998779297</ele>
        <time>2019-09-19T13:39:14.000Z</time>
      </trkpt>
      <trkpt lat="45.32696" lon="4.24184">
        <ele>683</ele>
        <time>2019-09-19T13:39:16.000Z</time>
      </trkpt>
      <trkpt lat="45.32711" lon="4.24211">
        <ele>683.20001220703</ele>
        <time>2019-09-19T13:39:21.000Z</time>
      </trkpt>
      <trkpt lat="45.32733" lon="4.24248">
        <ele>679.59997558594</ele>
        <time>2019-09-19T13:39:28.000Z</time>
      </trkpt>
      <trkpt lat="45.32738" lon="4.24276">
        <ele>679.79998779297</ele>
        <time>2019-09-19T13:39:34.000Z</time>
      </trkpt>
      <trkpt lat="45.32737" lon="4.24356">
        <ele>677.40002441406</ele>
        <time>2019-09-19T13:39:50.000Z</time>
      </trkpt>
      <trkpt lat="45.32732" lon="4.24428">
        <ele>672.79998779297</ele>
        <time>2019-09-19T13:40:02.000Z</time>
      </trkpt>
      <trkpt lat="45.32737" lon="4.24444">
        <ele>670</ele>
        <time>2019-09-19T13:40:05.000Z</time>
      </trkpt>
      <trkpt lat="45.32793" lon="4.24466">
        <ele>660.20001220703</ele>
        <time>2019-09-19T13:40:15.000Z</time>
      </trkpt>
      <trkpt lat="45.3282" lon="4.24467">
        <ele>657.79998779297</ele>
        <time>2019-09-19T13:40:19.000Z</time>
      </trkpt>
      <trkpt lat="45.32879" lon="4.24471">
        <ele>651.20001220703</ele>
        <time>2019-09-19T13:40:26.000Z</time>
      </trkpt>
      <trkpt lat="45.3294" lon="4.24474">
        <ele>644.40002441406</ele>
        <time>2019-09-19T13:40:33.000Z</time>
      </trkpt>
      <trkpt lat="45.32948" lon="4.24477">
        <ele>643.59997558594</ele>
        <time>2019-09-19T13:40:34.000Z</time>
      </trkpt>
      <trkpt lat="45.32965" lon="4.24511">
        <ele>641.20001220703</ele>
        <time>2019-09-19T13:40:39.000Z</time>
      </trkpt>
      <trkpt lat="45.32967" lon="4.24523">
        <ele>640.79998779297</ele>
        <time>2019-09-19T13:40:41.000Z</time>
      </trkpt>
      <trkpt lat="45.32968" lon="4.24525">
        <ele>640.79998779297</ele>
        <time>2019-09-19T13:40:53.000Z</time>
      </trkpt>
      <trkpt lat="45.32972" lon="4.24514">
        <ele>640.59997558594</ele>
        <time>2019-09-19T13:40:58.000Z</time>
      </trkpt>
      <trkpt lat="45.32978" lon="4.24502">
        <ele>640.40002441406</ele>
        <time>2019-09-19T13:41:02.000Z</time>
      </trkpt>
      <trkpt lat="45.32996" lon="4.24502">
        <ele>639</ele>
        <time>2019-09-19T13:41:08.000Z</time>
      </trkpt>
      <trkpt lat="45.33007" lon="4.24531">
        <ele>637.79998779297</ele>
        <time>2019-09-19T13:41:12.000Z</time>
      </trkpt>
      <trkpt lat="45.33052" lon="4.24573">
        <ele>632</ele>
        <time>2019-09-19T13:41:19.000Z</time>
      </trkpt>
      <trkpt lat="45.33089" lon="4.24581">
        <ele>628.79998779297</ele>
        <time>2019-09-19T13:41:23.000Z</time>
      </trkpt>
      <trkpt lat="45.3315" lon="4.24582">
        <ele>623.40002441406</ele>
        <time>2019-09-19T13:41:29.000Z</time>
      </trkpt>
      <trkpt lat="45.3321" lon="4.24583">
        <ele>619</ele>
        <time>2019-09-19T13:41:36.000Z</time>
      </trkpt>
      <trkpt lat="45.33215" lon="4.24586">
        <ele>618.59997558594</ele>
        <time>2019-09-19T13:41:37.000Z</time>
      </trkpt>
      <trkpt lat="45.33236" lon="4.24583">
        <ele>617.20001220703</ele>
        <time>2019-09-19T13:41:42.000Z</time>
      </trkpt>
      <trkpt lat="45.33242" lon="4.24578">
        <ele>617</ele>
        <time>2019-09-19T13:41:43.000Z</time>
      </trkpt>
      <trkpt lat="45.33294" lon="4.24532">
        <ele>613.20001220703</ele>
        <time>2019-09-19T13:41:51.000Z</time>
      </trkpt>
      <trkpt lat="45.33328" lon="4.24498">
        <ele>612.59997558594</ele>
        <time>2019-09-19T13:41:56.000Z</time>
      </trkpt>
      <trkpt lat="45.33358" lon="4.24453">
        <ele>612.79998779297</ele>
        <time>2019-09-19T13:42:02.000Z</time>
      </trkpt>
      <trkpt lat="45.3338" lon="4.24471">
        <ele>611.20001220703</ele>
        <time>2019-09-19T13:42:06.000Z</time>
      </trkpt>
      <trkpt lat="45.33425" lon="4.24517">
        <ele>607.79998779297</ele>
        <time>2019-09-19T13:42:15.000Z</time>
      </trkpt>
      <trkpt lat="45.33469" lon="4.24563">
        <ele>607.20001220703</ele>
        <time>2019-09-19T13:42:26.000Z</time>
      </trkpt>
      <trkpt lat="45.33493" lon="4.24583">
        <ele>607.59997558594</ele>
        <time>2019-09-19T13:42:32.000Z</time>
      </trkpt>
      <trkpt lat="45.33539" lon="4.24631">
        <ele>609.59997558594</ele>
        <time>2019-09-19T13:42:45.000Z</time>
      </trkpt>
      <trkpt lat="45.33575" lon="4.24683">
        <ele>611.79998779297</ele>
        <time>2019-09-19T13:43:01.000Z</time>
      </trkpt>
      <trkpt lat="45.33576" lon="4.24695">
        <ele>612.79998779297</ele>
        <time>2019-09-19T13:43:10.000Z</time>
      </trkpt>
      <trkpt lat="45.33598" lon="4.24768">
        <ele>617.40002441406</ele>
        <time>2019-09-19T13:43:30.000Z</time>
      </trkpt>
      <trkpt lat="45.33619" lon="4.24841">
        <ele>622</ele>
        <time>2019-09-19T13:43:52.000Z</time>
      </trkpt>
      <trkpt lat="45.33628" lon="4.24887">
        <ele>627</ele>
        <time>2019-09-19T13:44:10.000Z</time>
      </trkpt>
      <trkpt lat="45.3361" lon="4.24867">
        <ele>625.40002441406</ele>
        <time>2019-09-19T13:44:22.000Z</time>
      </trkpt>
      <trkpt lat="45.33577" lon="4.24803">
        <ele>621.79998779297</ele>
        <time>2019-09-19T13:44:32.000Z</time>
      </trkpt>
      <trkpt lat="45.33541" lon="4.24741">
        <ele>619</ele>
        <time>2019-09-19T13:44:39.000Z</time>
      </trkpt>
      <trkpt lat="45.3352" lon="4.24712">
        <ele>617.40002441406</ele>
        <time>2019-09-19T13:44:43.000Z</time>
      </trkpt>
      <trkpt lat="45.33468" lon="4.24688">
        <ele>617</ele>
        <time>2019-09-19T13:44:51.000Z</time>
      </trkpt>
      <trkpt lat="45.33456" lon="4.24688">
        <ele>617.20001220703</ele>
        <time>2019-09-19T13:44:53.000Z</time>
      </trkpt>
      <trkpt lat="45.33444" lon="4.24714">
        <ele>619.20001220703</ele>
        <time>2019-09-19T13:44:57.000Z</time>
      </trkpt>
      <trkpt lat="45.3344" lon="4.2472">
        <ele>619.79998779297</ele>
        <time>2019-09-19T13:44:58.000Z</time>
      </trkpt>
      <trkpt lat="45.33391" lon="4.24767">
        <ele>623</ele>
        <time>2019-09-19T13:45:07.000Z</time>
      </trkpt>
      <trkpt lat="45.33372" lon="4.24781">
        <ele>623.59997558594</ele>
        <time>2019-09-19T13:45:11.000Z</time>
      </trkpt>
      <trkpt lat="45.33319" lon="4.24803">
        <ele>623.59997558594</ele>
        <time>2019-09-19T13:45:25.000Z</time>
      </trkpt>
      <trkpt lat="45.33267" lon="4.2483">
        <ele>631.20001220703</ele>
        <time>2019-09-19T13:45:38.000Z</time>
      </trkpt>
      <trkpt lat="45.33214" lon="4.24861">
        <ele>636.59997558594</ele>
        <time>2019-09-19T13:45:55.000Z</time>
      </trkpt>
      <trkpt lat="45.33163" lon="4.24892">
        <ele>639</ele>
        <time>2019-09-19T13:46:15.000Z</time>
      </trkpt>
      <trkpt lat="45.33111" lon="4.24918">
        <ele>633.40002441406</ele>
        <time>2019-09-19T13:46:40.000Z</time>
      </trkpt>
      <trkpt lat="45.33103" lon="4.24947">
        <ele>634.79998779297</ele>
        <time>2019-09-19T13:46:54.000Z</time>
      </trkpt>
      <trkpt lat="45.33131" lon="4.2495">
        <ele>638.79998779297</ele>
        <time>2019-09-19T13:47:23.000Z</time>
      </trkpt>
      <trkpt lat="45.3317" lon="4.24975">
        <ele>653.20001220703</ele>
        <time>2019-09-19T13:48:27.000Z</time>
      </trkpt>
      <trkpt lat="45.33201" lon="4.2503">
        <ele>671</ele>
        <time>2019-09-19T13:49:49.000Z</time>
      </trkpt>
      <trkpt lat="45.33227" lon="4.25051">
        <ele>680.20001220703</ele>
        <time>2019-09-19T13:50:11.000Z</time>
      </trkpt>
      <trkpt lat="45.33237" lon="4.25072">
        <ele>684.20001220703</ele>
        <time>2019-09-19T13:50:35.000Z</time>
      </trkpt>
      <trkpt lat="45.33239" lon="4.25092">
        <ele>685.40002441406</ele>
        <time>2019-09-19T13:50:45.000Z</time>
      </trkpt>
      <trkpt lat="45.33241" lon="4.25117">
        <ele>687</ele>
        <time>2019-09-19T13:50:56.000Z</time>
      </trkpt>
      <trkpt lat="45.33241" lon="4.25142">
        <ele>689</ele>
        <time>2019-09-19T13:51:12.000Z</time>
      </trkpt>
      <trkpt lat="45.33239" lon="4.25171">
        <ele>692.40002441406</ele>
        <time>2019-09-19T13:51:33.000Z</time>
      </trkpt>
      <trkpt lat="45.33236" lon="4.25202">
        <ele>694.79998779297</ele>
        <time>2019-09-19T13:51:58.000Z</time>
      </trkpt>
      <trkpt lat="45.33243" lon="4.25247">
        <ele>699.59997558594</ele>
        <time>2019-09-19T13:52:18.000Z</time>
      </trkpt>
      <trkpt lat="45.33249" lon="4.25266">
        <ele>702.79998779297</ele>
        <time>2019-09-19T13:52:36.000Z</time>
      </trkpt>
      <trkpt lat="45.33251" lon="4.25267">
        <ele>703.20001220703</ele>
        <time>2019-09-19T13:52:38.000Z</time>
      </trkpt>
      <trkpt lat="45.33257" lon="4.25284">
        <ele>706.40002441406</ele>
        <time>2019-09-19T13:52:56.000Z</time>
      </trkpt>
      <trkpt lat="45.33255" lon="4.25358">
        <ele>712.40002441406</ele>
        <time>2019-09-19T13:54:11.000Z</time>
      </trkpt>
      <trkpt lat="45.33257" lon="4.25395">
        <ele>716.79998779297</ele>
        <time>2019-09-19T13:54:39.000Z</time>
      </trkpt>
      <trkpt lat="45.33258" lon="4.25399">
        <ele>717.59997558594</ele>
        <time>2019-09-19T13:54:42.000Z</time>
      </trkpt>
      <trkpt lat="45.33255" lon="4.25413">
        <ele>718.59997558594</ele>
        <time>2019-09-19T13:54:49.000Z</time>
      </trkpt>
      <trkpt lat="45.33248" lon="4.25445">
        <ele>721.59997558594</ele>
        <time>2019-09-19T13:55:07.000Z</time>
      </trkpt>
      <trkpt lat="45.3325" lon="4.25472">
        <ele>725.20001220703</ele>
        <time>2019-09-19T13:55:24.000Z</time>
      </trkpt>
      <trkpt lat="45.33242" lon="4.25533">
        <ele>730.59997558594</ele>
        <time>2019-09-19T13:56:24.000Z</time>
      </trkpt>
      <trkpt lat="45.33241" lon="4.25543">
        <ele>731.40002441406</ele>
        <time>2019-09-19T13:56:32.000Z</time>
      </trkpt>
      <trkpt lat="45.33241" lon="4.2555">
        <ele>732.40002441406</ele>
        <time>2019-09-19T13:56:47.000Z</time>
      </trkpt>
      <trkpt lat="45.33243" lon="4.25597">
        <ele>737.59997558594</ele>
        <time>2019-09-19T13:57:09.000Z</time>
      </trkpt>
      <trkpt lat="45.33242" lon="4.25635">
        <ele>740</ele>
        <time>2019-09-19T13:57:51.000Z</time>
      </trkpt>
      <trkpt lat="45.33212" lon="4.25701">
        <ele>746.40002441406</ele>
        <time>2019-09-19T13:58:29.000Z</time>
      </trkpt>
      <trkpt lat="45.33194" lon="4.25764">
        <ele>752.59997558594</ele>
        <time>2019-09-19T13:58:59.000Z</time>
      </trkpt>
      <trkpt lat="45.33189" lon="4.25772">
        <ele>752.59997558594</ele>
        <time>2019-09-19T13:59:04.000Z</time>
      </trkpt>
      <trkpt lat="45.33177" lon="4.25843">
        <ele>758</ele>
        <time>2019-09-19T13:59:26.000Z</time>
      </trkpt>
      <trkpt lat="45.33157" lon="4.25912">
        <ele>759</ele>
        <time>2019-09-19T13:59:44.000Z</time>
      </trkpt>
      <trkpt lat="45.3315" lon="4.25923">
        <ele>758.40002441406</ele>
        <time>2019-09-19T13:59:55.000Z</time>
      </trkpt>
      <trkpt lat="45.33149" lon="4.25925">
        <ele>758.20001220703</ele>
        <time>2019-09-19T14:00:16.000Z</time>
      </trkpt>
      <trkpt lat="45.33118" lon="4.25991">
        <ele>759.79998779297</ele>
        <time>2019-09-19T14:00:33.000Z</time>
      </trkpt>
      <trkpt lat="45.33116" lon="4.25998">
        <ele>760.40002441406</ele>
        <time>2019-09-19T14:00:34.000Z</time>
      </trkpt>
      <trkpt lat="45.33105" lon="4.26029">
        <ele>759.59997558594</ele>
        <time>2019-09-19T14:00:38.000Z</time>
      </trkpt>
      <trkpt lat="45.33072" lon="4.26095">
        <ele>756.40002441406</ele>
        <time>2019-09-19T14:00:47.000Z</time>
      </trkpt>
      <trkpt lat="45.33057" lon="4.26135">
        <ele>754.40002441406</ele>
        <time>2019-09-19T14:00:52.000Z</time>
      </trkpt>
      <trkpt lat="45.33054" lon="4.26163">
        <ele>754.59997558594</ele>
        <time>2019-09-19T14:00:57.000Z</time>
      </trkpt>
      <trkpt lat="45.33054" lon="4.26176">
        <ele>754.79998779297</ele>
        <time>2019-09-19T14:00:59.000Z</time>
      </trkpt>
      <trkpt lat="45.33084" lon="4.26204">
        <ele>760.79998779297</ele>
        <time>2019-09-19T14:01:07.000Z</time>
      </trkpt>
      <trkpt lat="45.33125" lon="4.26245">
        <ele>767.79998779297</ele>
        <time>2019-09-19T14:01:24.000Z</time>
      </trkpt>
      <trkpt lat="45.33142" lon="4.26319">
        <ele>770.59997558594</ele>
        <time>2019-09-19T14:01:44.000Z</time>
      </trkpt>
      <trkpt lat="45.33153" lon="4.26395">
        <ele>772.20001220703</ele>
        <time>2019-09-19T14:02:06.000Z</time>
      </trkpt>
      <trkpt lat="45.33159" lon="4.26472">
        <ele>771.79998779297</ele>
        <time>2019-09-19T14:02:30.000Z</time>
      </trkpt>
      <trkpt lat="45.33204" lon="4.26515">
        <ele>777.20001220703</ele>
        <time>2019-09-19T14:02:55.000Z</time>
      </trkpt>
      <trkpt lat="45.33255" lon="4.26548">
        <ele>779.20001220703</ele>
        <time>2019-09-19T14:03:15.000Z</time>
      </trkpt>
      <trkpt lat="45.33291" lon="4.26564">
        <ele>780.40002441406</ele>
        <time>2019-09-19T14:03:30.000Z</time>
      </trkpt>
      <trkpt lat="45.33346" lon="4.26574">
        <ele>788.40002441406</ele>
        <time>2019-09-19T14:03:54.000Z</time>
      </trkpt>
      <trkpt lat="45.33398" lon="4.26595">
        <ele>791.40002441406</ele>
        <time>2019-09-19T14:04:23.000Z</time>
      </trkpt>
      <trkpt lat="45.33411" lon="4.26601">
        <ele>791.79998779297</ele>
        <time>2019-09-19T14:04:32.000Z</time>
      </trkpt>
      <trkpt lat="45.33418" lon="4.26603">
        <ele>792.20001220703</ele>
        <time>2019-09-19T14:04:37.000Z</time>
      </trkpt>
      <trkpt lat="45.3343" lon="4.26603">
        <ele>792.79998779297</ele>
        <time>2019-09-19T14:04:45.000Z</time>
      </trkpt>
      <trkpt lat="45.33479" lon="4.26613">
        <ele>793.79998779297</ele>
        <time>2019-09-19T14:05:21.000Z</time>
      </trkpt>
      <trkpt lat="45.33481" lon="4.26622">
        <ele>794</ele>
        <time>2019-09-19T14:05:25.000Z</time>
      </trkpt>
      <trkpt lat="45.33475" lon="4.26699">
        <ele>795</ele>
        <time>2019-09-19T14:05:45.000Z</time>
      </trkpt>
      <trkpt lat="45.33474" lon="4.26705">
        <ele>795.20001220703</ele>
        <time>2019-09-19T14:05:46.000Z</time>
      </trkpt>
      <trkpt lat="45.33472" lon="4.2673">
        <ele>794.40002441406</ele>
        <time>2019-09-19T14:05:50.000Z</time>
      </trkpt>
      <trkpt lat="45.33469" lon="4.26756">
        <ele>793.79998779297</ele>
        <time>2019-09-19T14:05:54.000Z</time>
      </trkpt>
      <trkpt lat="45.33455" lon="4.26832">
        <ele>795.59997558594</ele>
        <time>2019-09-19T14:06:09.000Z</time>
      </trkpt>
      <trkpt lat="45.33446" lon="4.26908">
        <ele>799.59997558594</ele>
        <time>2019-09-19T14:06:31.000Z</time>
      </trkpt>
      <trkpt lat="45.33472" lon="4.2698">
        <ele>802.59997558594</ele>
        <time>2019-09-19T14:06:52.000Z</time>
      </trkpt>
      <trkpt lat="45.33487" lon="4.27034">
        <ele>800.79998779297</ele>
        <time>2019-09-19T14:07:00.000Z</time>
      </trkpt>
      <trkpt lat="45.33499" lon="4.27111">
        <ele>799.40002441406</ele>
        <time>2019-09-19T14:07:10.000Z</time>
      </trkpt>
      <trkpt lat="45.33515" lon="4.27187">
        <ele>802.40002441406</ele>
        <time>2019-09-19T14:07:25.000Z</time>
      </trkpt>
      <trkpt lat="45.33524" lon="4.27265">
        <ele>806</ele>
        <time>2019-09-19T14:07:44.000Z</time>
      </trkpt>
      <trkpt lat="45.33533" lon="4.27343">
        <ele>805.40002441406</ele>
        <time>2019-09-19T14:08:02.000Z</time>
      </trkpt>
      <trkpt lat="45.33542" lon="4.27421">
        <ele>805</ele>
        <time>2019-09-19T14:08:20.000Z</time>
      </trkpt>
      <trkpt lat="45.3354" lon="4.27433">
        <ele>804.79998779297</ele>
        <time>2019-09-19T14:08:22.000Z</time>
      </trkpt>
      <trkpt lat="45.33537" lon="4.27445">
        <ele>804.79998779297</ele>
        <time>2019-09-19T14:08:24.000Z</time>
      </trkpt>
      <trkpt lat="45.33539" lon="4.27463">
        <ele>805</ele>
        <time>2019-09-19T14:08:27.000Z</time>
      </trkpt>
      <trkpt lat="45.33556" lon="4.27539">
        <ele>806.20001220703</ele>
        <time>2019-09-19T14:08:42.000Z</time>
      </trkpt>
      <trkpt lat="45.3357" lon="4.27613">
        <ele>807.20001220703</ele>
        <time>2019-09-19T14:08:59.000Z</time>
      </trkpt>
      <trkpt lat="45.3359" lon="4.27687">
        <ele>811.40002441406</ele>
        <time>2019-09-19T14:09:18.000Z</time>
      </trkpt>
      <trkpt lat="45.33606" lon="4.2776">
        <ele>813</ele>
        <time>2019-09-19T14:09:39.000Z</time>
      </trkpt>
      <trkpt lat="45.33622" lon="4.27835">
        <ele>812.59997558594</ele>
        <time>2019-09-19T14:09:57.000Z</time>
      </trkpt>
      <trkpt lat="45.33634" lon="4.2791">
        <ele>811.79998779297</ele>
        <time>2019-09-19T14:10:14.000Z</time>
      </trkpt>
      <trkpt lat="45.33635" lon="4.27911">
        <ele>811.79998779297</ele>
        <time>2019-09-19T14:10:19.000Z</time>
      </trkpt>
      <trkpt lat="45.33643" lon="4.27934">
        <ele>811.20001220703</ele>
        <time>2019-09-19T14:10:24.000Z</time>
      </trkpt>
      <trkpt lat="45.33658" lon="4.28008">
        <ele>805.40002441406</ele>
        <time>2019-09-19T14:10:35.000Z</time>
      </trkpt>
      <trkpt lat="45.33659" lon="4.28014">
        <ele>805</ele>
        <time>2019-09-19T14:10:36.000Z</time>
      </trkpt>
      <trkpt lat="45.3366" lon="4.28067">
        <ele>801.40002441406</ele>
        <time>2019-09-19T14:10:44.000Z</time>
      </trkpt>
      <trkpt lat="45.33662" lon="4.28072">
        <ele>801</ele>
        <time>2019-09-19T14:10:45.000Z</time>
      </trkpt>
      <trkpt lat="45.33675" lon="4.28107">
        <ele>799.20001220703</ele>
        <time>2019-09-19T14:10:50.000Z</time>
      </trkpt>
      <trkpt lat="45.33684" lon="4.28122">
        <ele>798.20001220703</ele>
        <time>2019-09-19T14:10:53.000Z</time>
      </trkpt>
      <trkpt lat="45.3371" lon="4.28192">
        <ele>794.59997558594</ele>
        <time>2019-09-19T14:11:08.000Z</time>
      </trkpt>
      <trkpt lat="45.33692" lon="4.28264">
        <ele>799.20001220703</ele>
        <time>2019-09-19T14:11:23.000Z</time>
      </trkpt>
      <trkpt lat="45.33641" lon="4.28288">
        <ele>806</ele>
        <time>2019-09-19T14:11:37.000Z</time>
      </trkpt>
      <trkpt lat="45.33609" lon="4.28351">
        <ele>801.20001220703</ele>
        <time>2019-09-19T14:11:56.000Z</time>
      </trkpt>
      <trkpt lat="45.33595" lon="4.28427">
        <ele>803.40002441406</ele>
        <time>2019-09-19T14:12:13.000Z</time>
      </trkpt>
      <trkpt lat="45.3361" lon="4.28501">
        <ele>806.40002441406</ele>
        <time>2019-09-19T14:12:33.000Z</time>
      </trkpt>
      <trkpt lat="45.33659" lon="4.28531">
        <ele>804</ele>
        <time>2019-09-19T14:12:50.000Z</time>
      </trkpt>
      <trkpt lat="45.33683" lon="4.28549">
        <ele>801.59997558594</ele>
        <time>2019-09-19T14:12:59.000Z</time>
      </trkpt>
      <trkpt lat="45.33692" lon="4.28555">
        <ele>800.79998779297</ele>
        <time>2019-09-19T14:13:11.000Z</time>
      </trkpt>
      <trkpt lat="45.33745" lon="4.28555">
        <ele>795.20001220703</ele>
        <time>2019-09-19T14:13:31.000Z</time>
      </trkpt>
      <trkpt lat="45.33754" lon="4.2856">
        <ele>794.20001220703</ele>
        <time>2019-09-19T14:13:34.000Z</time>
      </trkpt>
      <trkpt lat="45.3378" lon="4.28554">
        <ele>791</ele>
        <time>2019-09-19T14:13:42.000Z</time>
      </trkpt>
      <trkpt lat="45.33789" lon="4.28538">
        <ele>789.20001220703</ele>
        <time>2019-09-19T14:13:45.000Z</time>
      </trkpt>
      <trkpt lat="45.338" lon="4.28526">
        <ele>787.79998779297</ele>
        <time>2019-09-19T14:13:48.000Z</time>
      </trkpt>
      <trkpt lat="45.33852" lon="4.28539">
        <ele>787.20001220703</ele>
        <time>2019-09-19T14:14:05.000Z</time>
      </trkpt>
      <trkpt lat="45.33852" lon="4.28542">
        <ele>787.20001220703</ele>
        <time>2019-09-19T14:14:06.000Z</time>
      </trkpt>
      <trkpt lat="45.33846" lon="4.28621">
        <ele>791.20001220703</ele>
        <time>2019-09-19T14:14:26.000Z</time>
      </trkpt>
      <trkpt lat="45.33868" lon="4.28693">
        <ele>797.59997558594</ele>
        <time>2019-09-19T14:14:44.000Z</time>
      </trkpt>
      <trkpt lat="45.33898" lon="4.28759">
        <ele>801.20001220703</ele>
        <time>2019-09-19T14:15:04.000Z</time>
      </trkpt>
      <trkpt lat="45.33933" lon="4.28821">
        <ele>802.59997558594</ele>
        <time>2019-09-19T14:15:24.000Z</time>
      </trkpt>
      <trkpt lat="45.33967" lon="4.28887">
        <ele>802</ele>
        <time>2019-09-19T14:15:40.000Z</time>
      </trkpt>
      <trkpt lat="45.33969" lon="4.28892">
        <ele>801.59997558594</ele>
        <time>2019-09-19T14:15:41.000Z</time>
      </trkpt>
      <trkpt lat="45.33979" lon="4.28919">
        <ele>800</ele>
        <time>2019-09-19T14:15:46.000Z</time>
      </trkpt>
      <trkpt lat="45.33995" lon="4.28978">
        <ele>798.20001220703</ele>
        <time>2019-09-19T14:15:55.000Z</time>
      </trkpt>
      <trkpt lat="45.33997" lon="4.29041">
        <ele>797</ele>
        <time>2019-09-19T14:16:04.000Z</time>
      </trkpt>
      <trkpt lat="45.34021" lon="4.29117">
        <ele>795.79998779297</ele>
        <time>2019-09-19T14:16:15.000Z</time>
      </trkpt>
      <trkpt lat="45.34022" lon="4.29124">
        <ele>795.40002441406</ele>
        <time>2019-09-19T14:16:16.000Z</time>
      </trkpt>
      <trkpt lat="45.3402" lon="4.29153">
        <ele>794</ele>
        <time>2019-09-19T14:16:20.000Z</time>
      </trkpt>
      <trkpt lat="45.34016" lon="4.2923">
        <ele>791.79998779297</ele>
        <time>2019-09-19T14:16:31.000Z</time>
      </trkpt>
      <trkpt lat="45.34015" lon="4.29306">
        <ele>785</ele>
        <time>2019-09-19T14:16:54.000Z</time>
      </trkpt>
      <trkpt lat="45.34" lon="4.29368">
        <ele>778.59997558594</ele>
        <time>2019-09-19T14:17:16.000Z</time>
      </trkpt>
      <trkpt lat="45.33997" lon="4.29397">
        <ele>775.20001220703</ele>
        <time>2019-09-19T14:17:22.000Z</time>
      </trkpt>
      <trkpt lat="45.33991" lon="4.29407">
        <ele>774.79998779297</ele>
        <time>2019-09-19T14:17:24.000Z</time>
      </trkpt>
      <trkpt lat="45.33954" lon="4.29468">
        <ele>773.59997558594</ele>
        <time>2019-09-19T14:17:35.000Z</time>
      </trkpt>
      <trkpt lat="45.33939" lon="4.2949">
        <ele>774</ele>
        <time>2019-09-19T14:17:40.000Z</time>
      </trkpt>
      <trkpt lat="45.33906" lon="4.2952">
        <ele>773.20001220703</ele>
        <time>2019-09-19T14:17:48.000Z</time>
      </trkpt>
      <trkpt lat="45.33894" lon="4.29591">
        <ele>769.59997558594</ele>
        <time>2019-09-19T14:18:03.000Z</time>
      </trkpt>
      <trkpt lat="45.33917" lon="4.29643">
        <ele>762.79998779297</ele>
        <time>2019-09-19T14:18:21.000Z</time>
      </trkpt>
      <trkpt lat="45.33917" lon="4.29679">
        <ele>763</ele>
        <time>2019-09-19T14:18:37.000Z</time>
      </trkpt>
      <trkpt lat="45.33901" lon="4.2973">
        <ele>765.20001220703</ele>
        <time>2019-09-19T14:18:47.000Z</time>
      </trkpt>
      <trkpt lat="45.33892" lon="4.29757">
        <ele>763.79998779297</ele>
        <time>2019-09-19T14:18:51.000Z</time>
      </trkpt>
      <trkpt lat="45.3388" lon="4.29795">
        <ele>761.79998779297</ele>
        <time>2019-09-19T14:19:09.000Z</time>
      </trkpt>
      <trkpt lat="45.33864" lon="4.29868">
        <ele>758.59997558594</ele>
        <time>2019-09-19T14:19:29.000Z</time>
      </trkpt>
      <trkpt lat="45.33828" lon="4.29926">
        <ele>761.59997558594</ele>
        <time>2019-09-19T14:19:45.000Z</time>
      </trkpt>
      <trkpt lat="45.338" lon="4.29975">
        <ele>758.20001220703</ele>
        <time>2019-09-19T14:19:55.000Z</time>
      </trkpt>
      <trkpt lat="45.33789" lon="4.30053">
        <ele>757.59997558594</ele>
        <time>2019-09-19T14:20:07.000Z</time>
      </trkpt>
      <trkpt lat="45.33788" lon="4.30066">
        <ele>758.79998779297</ele>
        <time>2019-09-19T14:20:09.000Z</time>
      </trkpt>
      <trkpt lat="45.33807" lon="4.3009">
        <ele>760.59997558594</ele>
        <time>2019-09-19T14:20:16.000Z</time>
      </trkpt>
      <trkpt lat="45.33833" lon="4.30084">
        <ele>762.59997558594</ele>
        <time>2019-09-19T14:20:31.000Z</time>
      </trkpt>
      <trkpt lat="45.33873" lon="4.30068">
        <ele>764.40002441406</ele>
        <time>2019-09-19T14:20:57.000Z</time>
      </trkpt>
      <trkpt lat="45.33884" lon="4.30081">
        <ele>767.20001220703</ele>
        <time>2019-09-19T14:21:08.000Z</time>
      </trkpt>
      <trkpt lat="45.33867" lon="4.30156">
        <ele>773.20001220703</ele>
        <time>2019-09-19T14:21:45.000Z</time>
      </trkpt>
      <trkpt lat="45.33866" lon="4.3016">
        <ele>773.59997558594</ele>
        <time>2019-09-19T14:21:47.000Z</time>
      </trkpt>
      <trkpt lat="45.33865" lon="4.30167">
        <ele>774.20001220703</ele>
        <time>2019-09-19T14:21:51.000Z</time>
      </trkpt>
      <trkpt lat="45.33847" lon="4.30219">
        <ele>782.40002441406</ele>
        <time>2019-09-19T14:22:21.000Z</time>
      </trkpt>
      <trkpt lat="45.33844" lon="4.30228">
        <ele>784.20001220703</ele>
        <time>2019-09-19T14:22:26.000Z</time>
      </trkpt>
      <trkpt lat="45.33812" lon="4.30291">
        <ele>792.20001220703</ele>
        <time>2019-09-19T14:23:03.000Z</time>
      </trkpt>
      <trkpt lat="45.33795" lon="4.30316">
        <ele>795.79998779297</ele>
        <time>2019-09-19T14:23:19.000Z</time>
      </trkpt>
      <trkpt lat="45.33791" lon="4.30322">
        <ele>796.59997558594</ele>
        <time>2019-09-19T14:23:23.000Z</time>
      </trkpt>
      <trkpt lat="45.33774" lon="4.3035">
        <ele>800.40002441406</ele>
        <time>2019-09-19T14:23:43.000Z</time>
      </trkpt>
      <trkpt lat="45.33763" lon="4.30367">
        <ele>803.20001220703</ele>
        <time>2019-09-19T14:23:55.000Z</time>
      </trkpt>
      <trkpt lat="45.33748" lon="4.30396">
        <ele>806</ele>
        <time>2019-09-19T14:24:13.000Z</time>
      </trkpt>
      <trkpt lat="45.33742" lon="4.30408">
        <ele>808.40002441406</ele>
        <time>2019-09-19T14:24:20.000Z</time>
      </trkpt>
      <trkpt lat="45.33737" lon="4.30419">
        <ele>810.79998779297</ele>
        <time>2019-09-19T14:24:27.000Z</time>
      </trkpt>
      <trkpt lat="45.33714" lon="4.30489">
        <ele>817.40002441406</ele>
        <time>2019-09-19T14:25:01.000Z</time>
      </trkpt>
      <trkpt lat="45.33668" lon="4.3053">
        <ele>819.59997558594</ele>
        <time>2019-09-19T14:25:24.000Z</time>
      </trkpt>
      <trkpt lat="45.33619" lon="4.30564">
        <ele>820.20001220703</ele>
        <time>2019-09-19T14:25:39.000Z</time>
      </trkpt>
      <trkpt lat="45.33567" lon="4.30587">
        <ele>819.79998779297</ele>
        <time>2019-09-19T14:25:51.000Z</time>
      </trkpt>
      <trkpt lat="45.33554" lon="4.30592">
        <ele>820.20001220703</ele>
        <time>2019-09-19T14:25:54.000Z</time>
      </trkpt>
      <trkpt lat="45.33538" lon="4.306">
        <ele>820</ele>
        <time>2019-09-19T14:25:58.000Z</time>
      </trkpt>
      <trkpt lat="45.33509" lon="4.30618">
        <ele>819.40002441406</ele>
        <time>2019-09-19T14:26:05.000Z</time>
      </trkpt>
      <trkpt lat="45.33454" lon="4.30639">
        <ele>818.20001220703</ele>
        <time>2019-09-19T14:26:18.000Z</time>
      </trkpt>
      <trkpt lat="45.33443" lon="4.30643">
        <ele>817.59997558594</ele>
        <time>2019-09-19T14:26:21.000Z</time>
      </trkpt>
      <trkpt lat="45.33415" lon="4.30644">
        <ele>815.59997558594</ele>
        <time>2019-09-19T14:26:26.000Z</time>
      </trkpt>
      <trkpt lat="45.33396" lon="4.30638">
        <ele>814.59997558594</ele>
        <time>2019-09-19T14:26:30.000Z</time>
      </trkpt>
      <trkpt lat="45.3334" lon="4.30626">
        <ele>808.79998779297</ele>
        <time>2019-09-19T14:26:47.000Z</time>
      </trkpt>
      <trkpt lat="45.33288" lon="4.30611">
        <ele>801.79998779297</ele>
        <time>2019-09-19T14:27:08.000Z</time>
      </trkpt>
      <trkpt lat="45.33234" lon="4.30602">
        <ele>796.40002441406</ele>
        <time>2019-09-19T14:27:27.000Z</time>
      </trkpt>
      <trkpt lat="45.33185" lon="4.3056">
        <ele>791.59997558594</ele>
        <time>2019-09-19T14:27:43.000Z</time>
      </trkpt>
      <trkpt lat="45.33134" lon="4.30536">
        <ele>792.20001220703</ele>
        <time>2019-09-19T14:27:58.000Z</time>
      </trkpt>
      <trkpt lat="45.33108" lon="4.30534">
        <ele>793</ele>
        <time>2019-09-19T14:28:12.000Z</time>
      </trkpt>
      <trkpt lat="45.33102" lon="4.30531">
        <ele>793.40002441406</ele>
        <time>2019-09-19T14:28:22.000Z</time>
      </trkpt>
      <trkpt lat="45.33088" lon="4.30518">
        <ele>795.40002441406</ele>
        <time>2019-09-19T14:28:46.000Z</time>
      </trkpt>
      <trkpt lat="45.33084" lon="4.30511">
        <ele>796.59997558594</ele>
        <time>2019-09-19T14:28:57.000Z</time>
      </trkpt>
      <trkpt lat="45.33065" lon="4.30492">
        <ele>799.79998779297</ele>
        <time>2019-09-19T14:29:23.000Z</time>
      </trkpt>
      <trkpt lat="45.33064" lon="4.30491">
        <ele>799.79998779297</ele>
        <time>2019-09-19T14:29:26.000Z</time>
      </trkpt>
      <trkpt lat="45.33063" lon="4.3049">
        <ele>800</ele>
        <time>2019-09-19T14:29:35.000Z</time>
      </trkpt>
      <trkpt lat="45.3305" lon="4.30472">
        <ele>802.79998779297</ele>
        <time>2019-09-19T14:30:14.000Z</time>
      </trkpt>
      <trkpt lat="45.3301" lon="4.30422">
        <ele>805.59997558594</ele>
        <time>2019-09-19T14:30:40.000Z</time>
      </trkpt>
      <trkpt lat="45.33001" lon="4.30414">
        <ele>805.59997558594</ele>
        <time>2019-09-19T14:30:45.000Z</time>
      </trkpt>
      <trkpt lat="45.32962" lon="4.30359">
        <ele>807.40002441406</ele>
        <time>2019-09-19T14:31:10.000Z</time>
      </trkpt>
      <trkpt lat="45.32921" lon="4.30313">
        <ele>810.59997558594</ele>
        <time>2019-09-19T14:31:32.000Z</time>
      </trkpt>
      <trkpt lat="45.32868" lon="4.30294">
        <ele>812.40002441406</ele>
        <time>2019-09-19T14:31:53.000Z</time>
      </trkpt>
      <trkpt lat="45.32818" lon="4.30263">
        <ele>818</ele>
        <time>2019-09-19T14:32:19.000Z</time>
      </trkpt>
      <trkpt lat="45.32767" lon="4.30237">
        <ele>823</ele>
        <time>2019-09-19T14:32:47.000Z</time>
      </trkpt>
      <trkpt lat="45.32718" lon="4.30202">
        <ele>828.40002441406</ele>
        <time>2019-09-19T14:33:15.000Z</time>
      </trkpt>
      <trkpt lat="45.32689" lon="4.30182">
        <ele>831.40002441406</ele>
        <time>2019-09-19T14:33:30.000Z</time>
      </trkpt>
      <trkpt lat="45.32638" lon="4.30162">
        <ele>835.59997558594</ele>
        <time>2019-09-19T14:33:57.000Z</time>
      </trkpt>
      <trkpt lat="45.32585" lon="4.30155">
        <ele>836</ele>
        <time>2019-09-19T14:34:17.000Z</time>
      </trkpt>
      <trkpt lat="45.32577" lon="4.30134">
        <ele>837.59997558594</ele>
        <time>2019-09-19T14:34:22.000Z</time>
      </trkpt>
      <trkpt lat="45.32542" lon="4.30074">
        <ele>842.40002441406</ele>
        <time>2019-09-19T14:34:40.000Z</time>
      </trkpt>
      <trkpt lat="45.32502" lon="4.30021">
        <ele>843.59997558594</ele>
        <time>2019-09-19T14:34:57.000Z</time>
      </trkpt>
      <trkpt lat="45.32461" lon="4.29964">
        <ele>843</ele>
        <time>2019-09-19T14:35:13.000Z</time>
      </trkpt>
      <trkpt lat="45.32421" lon="4.29907">
        <ele>845.20001220703</ele>
        <time>2019-09-19T14:35:28.000Z</time>
      </trkpt>
      <trkpt lat="45.32383" lon="4.29851">
        <ele>848</ele>
        <time>2019-09-19T14:35:43.000Z</time>
      </trkpt>
      <trkpt lat="45.32345" lon="4.29796">
        <ele>849.59997558594</ele>
        <time>2019-09-19T14:36:00.000Z</time>
      </trkpt>
      <trkpt lat="45.32299" lon="4.29755">
        <ele>844.79998779297</ele>
        <time>2019-09-19T14:36:20.000Z</time>
      </trkpt>
      <trkpt lat="45.32246" lon="4.29734">
        <ele>844.79998779297</ele>
        <time>2019-09-19T14:36:33.000Z</time>
      </trkpt>
      <trkpt lat="45.3219" lon="4.29713">
        <ele>845.20001220703</ele>
        <time>2019-09-19T14:36:45.000Z</time>
      </trkpt>
      <trkpt lat="45.32136" lon="4.29691">
        <ele>846.20001220703</ele>
        <time>2019-09-19T14:36:56.000Z</time>
      </trkpt>
      <trkpt lat="45.32081" lon="4.2967">
        <ele>845.59997558594</ele>
        <time>2019-09-19T14:37:06.000Z</time>
      </trkpt>
      <trkpt lat="45.32026" lon="4.29649">
        <ele>845.20001220703</ele>
        <time>2019-09-19T14:37:14.000Z</time>
      </trkpt>
      <trkpt lat="45.31973" lon="4.29629">
        <ele>845.40002441406</ele>
        <time>2019-09-19T14:37:21.000Z</time>
      </trkpt>
      <trkpt lat="45.31919" lon="4.29606">
        <ele>845.20001220703</ele>
        <time>2019-09-19T14:37:29.000Z</time>
      </trkpt>
      <trkpt lat="45.31865" lon="4.29584">
        <ele>845.79998779297</ele>
        <time>2019-09-19T14:37:39.000Z</time>
      </trkpt>
      <trkpt lat="45.31811" lon="4.29563">
        <ele>845.79998779297</ele>
        <time>2019-09-19T14:37:49.000Z</time>
      </trkpt>
      <trkpt lat="45.31758" lon="4.29542">
        <ele>844.40002441406</ele>
        <time>2019-09-19T14:37:57.000Z</time>
      </trkpt>
      <trkpt lat="45.31707" lon="4.29523">
        <ele>843</ele>
        <time>2019-09-19T14:38:05.000Z</time>
      </trkpt>
      <trkpt lat="45.31661" lon="4.29502">
        <ele>844.40002441406</ele>
        <time>2019-09-19T14:38:14.000Z</time>
      </trkpt>
      <trkpt lat="45.31645" lon="4.29458">
        <ele>842.59997558594</ele>
        <time>2019-09-19T14:38:22.000Z</time>
      </trkpt>
      <trkpt lat="45.31637" lon="4.2938">
        <ele>843.20001220703</ele>
        <time>2019-09-19T14:38:34.000Z</time>
      </trkpt>
      <trkpt lat="45.31629" lon="4.29305">
        <ele>847</ele>
        <time>2019-09-19T14:38:46.000Z</time>
      </trkpt>
      <trkpt lat="45.31617" lon="4.29227">
        <ele>848.40002441406</ele>
        <time>2019-09-19T14:38:59.000Z</time>
      </trkpt>
      <trkpt lat="45.316" lon="4.29151">
        <ele>851.59997558594</ele>
        <time>2019-09-19T14:39:12.000Z</time>
      </trkpt>
      <trkpt lat="45.31596" lon="4.29133">
        <ele>852.79998779297</ele>
        <time>2019-09-19T14:39:15.000Z</time>
      </trkpt>
      <trkpt lat="45.31579" lon="4.29058">
        <ele>856.40002441406</ele>
        <time>2019-09-19T14:39:28.000Z</time>
      </trkpt>
      <trkpt lat="45.31562" lon="4.2898">
        <ele>858.20001220703</ele>
        <time>2019-09-19T14:39:42.000Z</time>
      </trkpt>
      <trkpt lat="45.31544" lon="4.28903">
        <ele>857</ele>
        <time>2019-09-19T14:39:53.000Z</time>
      </trkpt>
      <trkpt lat="45.31527" lon="4.28825">
        <ele>855</ele>
        <time>2019-09-19T14:40:02.000Z</time>
      </trkpt>
      <trkpt lat="45.31507" lon="4.28744">
        <ele>853.20001220703</ele>
        <time>2019-09-19T14:40:10.000Z</time>
      </trkpt>
      <trkpt lat="45.31491" lon="4.2867">
        <ele>853.40002441406</ele>
        <time>2019-09-19T14:40:17.000Z</time>
      </trkpt>
      <trkpt lat="45.31474" lon="4.28596">
        <ele>853.40002441406</ele>
        <time>2019-09-19T14:40:24.000Z</time>
      </trkpt>
      <trkpt lat="45.31444" lon="4.28527">
        <ele>851.20001220703</ele>
        <time>2019-09-19T14:40:31.000Z</time>
      </trkpt>
      <trkpt lat="45.31404" lon="4.28483">
        <ele>849.79998779297</ele>
        <time>2019-09-19T14:40:37.000Z</time>
      </trkpt>
      <trkpt lat="45.31346" lon="4.28453">
        <ele>848.59997558594</ele>
        <time>2019-09-19T14:40:44.000Z</time>
      </trkpt>
      <trkpt lat="45.31292" lon="4.28432">
        <ele>848</ele>
        <time>2019-09-19T14:40:50.000Z</time>
      </trkpt>
      <trkpt lat="45.31237" lon="4.28396">
        <ele>849.40002441406</ele>
        <time>2019-09-19T14:40:57.000Z</time>
      </trkpt>
      <trkpt lat="45.31224" lon="4.28385">
        <ele>849.59997558594</ele>
        <time>2019-09-19T14:40:59.000Z</time>
      </trkpt>
      <trkpt lat="45.31171" lon="4.28371">
        <ele>851</ele>
        <time>2019-09-19T14:41:08.000Z</time>
      </trkpt>
      <trkpt lat="45.31164" lon="4.2837">
        <ele>851.20001220703</ele>
        <time>2019-09-19T14:41:09.000Z</time>
      </trkpt>
      <trkpt lat="45.31142" lon="4.28367">
        <ele>851.59997558594</ele>
        <time>2019-09-19T14:41:12.000Z</time>
      </trkpt>
      <trkpt lat="45.31087" lon="4.28345">
        <ele>853.59997558594</ele>
        <time>2019-09-19T14:41:22.000Z</time>
      </trkpt>
      <trkpt lat="45.31035" lon="4.28322">
        <ele>855.40002441406</ele>
        <time>2019-09-19T14:41:34.000Z</time>
      </trkpt>
      <trkpt lat="45.30982" lon="4.28295">
        <ele>857</ele>
        <time>2019-09-19T14:41:47.000Z</time>
      </trkpt>
      <trkpt lat="45.30953" lon="4.28281">
        <ele>857.59997558594</ele>
        <time>2019-09-19T14:41:53.000Z</time>
      </trkpt>
      <trkpt lat="45.30901" lon="4.28253">
        <ele>858.79998779297</ele>
        <time>2019-09-19T14:42:03.000Z</time>
      </trkpt>
      <trkpt lat="45.3088" lon="4.28239">
        <ele>859.40002441406</ele>
        <time>2019-09-19T14:42:07.000Z</time>
      </trkpt>
      <trkpt lat="45.30829" lon="4.28198">
        <ele>860.40002441406</ele>
        <time>2019-09-19T14:42:17.000Z</time>
      </trkpt>
      <trkpt lat="45.30788" lon="4.28165">
        <ele>859.40002441406</ele>
        <time>2019-09-19T14:42:25.000Z</time>
      </trkpt>
      <trkpt lat="45.30778" lon="4.28153">
        <ele>858.59997558594</ele>
        <time>2019-09-19T14:42:27.000Z</time>
      </trkpt>
      <trkpt lat="45.30753" lon="4.28089">
        <ele>856.79998779297</ele>
        <time>2019-09-19T14:42:34.000Z</time>
      </trkpt>
      <trkpt lat="45.30735" lon="4.28006">
        <ele>853.40002441406</ele>
        <time>2019-09-19T14:42:41.000Z</time>
      </trkpt>
      <trkpt lat="45.30718" lon="4.27922">
        <ele>852.59997558594</ele>
        <time>2019-09-19T14:42:48.000Z</time>
      </trkpt>
      <trkpt lat="45.30714" lon="4.2791">
        <ele>852.40002441406</ele>
        <time>2019-09-19T14:42:49.000Z</time>
      </trkpt>
      <trkpt lat="45.30672" lon="4.27867">
        <ele>850.40002441406</ele>
        <time>2019-09-19T14:42:55.000Z</time>
      </trkpt>
      <trkpt lat="45.30622" lon="4.27837">
        <ele>847.79998779297</ele>
        <time>2019-09-19T14:43:01.000Z</time>
      </trkpt>
      <trkpt lat="45.30566" lon="4.27802">
        <ele>847.59997558594</ele>
        <time>2019-09-19T14:43:08.000Z</time>
      </trkpt>
      <trkpt lat="45.30527" lon="4.27778">
        <ele>847.40002441406</ele>
        <time>2019-09-19T14:43:13.000Z</time>
      </trkpt>
      <trkpt lat="45.30476" lon="4.27749">
        <ele>846.20001220703</ele>
        <time>2019-09-19T14:43:19.000Z</time>
      </trkpt>
      <trkpt lat="45.30424" lon="4.27715">
        <ele>843.59997558594</ele>
        <time>2019-09-19T14:43:25.000Z</time>
      </trkpt>
      <trkpt lat="45.30371" lon="4.27682">
        <ele>840.79998779297</ele>
        <time>2019-09-19T14:43:31.000Z</time>
      </trkpt>
      <trkpt lat="45.30352" lon="4.27666">
        <ele>840</ele>
        <time>2019-09-19T14:43:34.000Z</time>
      </trkpt>
      <trkpt lat="45.30348" lon="4.27644">
        <ele>840.40002441406</ele>
        <time>2019-09-19T14:43:38.000Z</time>
      </trkpt>
      <trkpt lat="45.30347" lon="4.27637">
        <ele>840.40002441406</ele>
        <time>2019-09-19T14:43:41.000Z</time>
      </trkpt>
      <trkpt lat="45.30344" lon="4.27636">
        <ele>840.20001220703</ele>
        <time>2019-09-19T14:43:49.000Z</time>
      </trkpt>
      <trkpt lat="45.30309" lon="4.27639">
        <ele>838.20001220703</ele>
        <time>2019-09-19T14:44:08.000Z</time>
      </trkpt>
      <trkpt lat="45.30262" lon="4.27635">
        <ele>836</ele>
        <time>2019-09-19T14:44:25.000Z</time>
      </trkpt>
      <trkpt lat="45.30243" lon="4.2764">
        <ele>835</ele>
        <time>2019-09-19T14:44:31.000Z</time>
      </trkpt>
      <trkpt lat="45.3023" lon="4.27645">
        <ele>834.79998779297</ele>
        <time>2019-09-19T14:44:35.000Z</time>
      </trkpt>
      <trkpt lat="45.30221" lon="4.27668">
        <ele>834.79998779297</ele>
        <time>2019-09-19T14:44:47.000Z</time>
      </trkpt>
    </trkseg>
  </trk>
</gpx>